<?xml version="1.0" encoding="UTF-8" standalone="no" ?>
<gpx xmlns="http://www.topografix.com/GPX/1/1" xmlns:xsi="http://www.w3.org/2001/XMLSchema-instance" xsi:schemaLocation="http://www.topografix.com/GPX/1/1 http://www.topografix.com/GPX/1/1/gpx.xsd" version="1.1" creator="VisuGPX - https://www.visugpx.com">
  <metadata>
    <name>64 - PEDESTRE - Pic Roumendarès - Un aller retour du parking au bout de la piste forestière</name>
    <desc><![CDATA[Journée magnifique reprise activité. ]]></desc>
  </metadata>
  <wpt lat="43.06257" lon="-0.56253">
    <ele>1539.9</ele>
    <name><![CDATA[Col D'Andurte]]></name>
    <desc><![CDATA[Col D'Andurte]]></desc>
    <cmt><![CDATA[Col D'Andurte]]></cmt>
  </wpt>
  <wpt lat="43.07258" lon="-0.54592">
    <ele>759.2</ele>
    <name><![CDATA[Depart-randonn]]></name>
    <desc><![CDATA[Depart-randonnee]]></desc>
    <cmt><![CDATA[Depart-randonnee]]></cmt>
  </wpt>
  <wpt lat="43.06507" lon="-0.56224">
    <ele>1629</ele>
    <name><![CDATA[Pic Roumendarè]]></name>
    <desc><![CDATA[Pic Roumendarès]]></desc>
    <cmt><![CDATA[Pic Roumendarès]]></cmt>
  </wpt>
  <trk>
    <name><![CDATA[ACTIVE LOG 001]]></name>
    <trkseg>
      <trkpt lat="43.0728" lon="-0.54604">
        <ele>801.876953125</ele>
        <time>2016-05-05T07:13:26Z</time>
      </trkpt>
      <trkpt lat="43.07279" lon="-0.54604">
        <ele>801.876953125</ele>
        <time>2016-05-05T07:13:27Z</time>
      </trkpt>
      <trkpt lat="43.07278" lon="-0.54603">
        <ele>801.39624023438</ele>
        <time>2016-05-05T07:13:28Z</time>
      </trkpt>
      <trkpt lat="43.07268" lon="-0.54594">
        <ele>800.43505859375</ele>
        <time>2016-05-05T07:13:49Z</time>
      </trkpt>
      <trkpt lat="43.07266" lon="-0.54598">
        <ele>799.95434570312</ele>
        <time>2016-05-05T07:13:59Z</time>
      </trkpt>
      <trkpt lat="43.07267" lon="-0.54602">
        <ele>799.4736328125</ele>
        <time>2016-05-05T07:14:09Z</time>
      </trkpt>
      <trkpt lat="43.07253" lon="-0.54606">
        <ele>799.4736328125</ele>
        <time>2016-05-05T07:14:21Z</time>
      </trkpt>
      <trkpt lat="43.07237" lon="-0.54604">
        <ele>799.4736328125</ele>
        <time>2016-05-05T07:15:05Z</time>
      </trkpt>
      <trkpt lat="43.07245" lon="-0.5462">
        <ele>802.357421875</ele>
        <time>2016-05-05T07:15:15Z</time>
      </trkpt>
      <trkpt lat="43.07248" lon="-0.54637">
        <ele>805.72216796875</ele>
        <time>2016-05-05T07:15:33Z</time>
      </trkpt>
      <trkpt lat="43.07248" lon="-0.5463">
        <ele>807.64477539062</ele>
        <time>2016-05-05T07:15:50Z</time>
      </trkpt>
      <trkpt lat="43.07245" lon="-0.54624">
        <ele>809.08666992188</ele>
        <time>2016-05-05T07:15:56Z</time>
      </trkpt>
      <trkpt lat="43.07234" lon="-0.54646">
        <ele>811.970703125</ele>
        <time>2016-05-05T07:16:15Z</time>
      </trkpt>
      <trkpt lat="43.07234" lon="-0.54637">
        <ele>813.89331054688</ele>
        <time>2016-05-05T07:16:30Z</time>
      </trkpt>
      <trkpt lat="43.07239" lon="-0.5463">
        <ele>817.73852539062</ele>
        <time>2016-05-05T07:16:44Z</time>
      </trkpt>
      <trkpt lat="43.07234" lon="-0.54646">
        <ele>819.1806640625</ele>
        <time>2016-05-05T07:16:56Z</time>
      </trkpt>
      <trkpt lat="43.07226" lon="-0.54642">
        <ele>820.14184570312</ele>
        <time>2016-05-05T07:17:14Z</time>
      </trkpt>
      <trkpt lat="43.07216" lon="-0.54622">
        <ele>822.54516601562</ele>
        <time>2016-05-05T07:17:36Z</time>
      </trkpt>
      <trkpt lat="43.0722" lon="-0.54619">
        <ele>824.4677734375</ele>
        <time>2016-05-05T07:17:45Z</time>
      </trkpt>
      <trkpt lat="43.07221" lon="-0.54607">
        <ele>824.94848632812</ele>
        <time>2016-05-05T07:17:58Z</time>
      </trkpt>
      <trkpt lat="43.07247" lon="-0.54589">
        <ele>826.39038085938</ele>
        <time>2016-05-05T07:18:20Z</time>
      </trkpt>
      <trkpt lat="43.07252" lon="-0.5458">
        <ele>827.35180664062</ele>
        <time>2016-05-05T07:18:31Z</time>
      </trkpt>
      <trkpt lat="43.07261" lon="-0.54575">
        <ele>830.71655273438</ele>
        <time>2016-05-05T07:18:43Z</time>
      </trkpt>
      <trkpt lat="43.07262" lon="-0.54571">
        <ele>834.0810546875</ele>
        <time>2016-05-05T07:18:54Z</time>
      </trkpt>
      <trkpt lat="43.07254" lon="-0.54561">
        <ele>834.56176757812</ele>
        <time>2016-05-05T07:19:02Z</time>
      </trkpt>
      <trkpt lat="43.0725" lon="-0.54559">
        <ele>835.04248046875</ele>
        <time>2016-05-05T07:19:04Z</time>
      </trkpt>
      <trkpt lat="43.0724" lon="-0.54548">
        <ele>836.96484375</ele>
        <time>2016-05-05T07:19:13Z</time>
      </trkpt>
      <trkpt lat="43.0721" lon="-0.54523">
        <ele>838.40698242188</ele>
        <time>2016-05-05T07:19:33Z</time>
      </trkpt>
      <trkpt lat="43.07205" lon="-0.54511">
        <ele>841.771484375</ele>
        <time>2016-05-05T07:19:46Z</time>
      </trkpt>
      <trkpt lat="43.07201" lon="-0.54509">
        <ele>843.21337890625</ele>
        <time>2016-05-05T07:19:58Z</time>
      </trkpt>
      <trkpt lat="43.07185" lon="-0.54514">
        <ele>844.17504882812</ele>
        <time>2016-05-05T07:20:22Z</time>
      </trkpt>
      <trkpt lat="43.07182" lon="-0.54525">
        <ele>847.05883789062</ele>
        <time>2016-05-05T07:20:39Z</time>
      </trkpt>
      <trkpt lat="43.07172" lon="-0.54537">
        <ele>850.42358398438</ele>
        <time>2016-05-05T07:21:07Z</time>
      </trkpt>
      <trkpt lat="43.07177" lon="-0.5456">
        <ele>852.82666015625</ele>
        <time>2016-05-05T07:21:22Z</time>
      </trkpt>
      <trkpt lat="43.07172" lon="-0.54567">
        <ele>856.19116210938</ele>
        <time>2016-05-05T07:21:32Z</time>
      </trkpt>
      <trkpt lat="43.07173" lon="-0.54577">
        <ele>857.15258789062</ele>
        <time>2016-05-05T07:21:44Z</time>
      </trkpt>
      <trkpt lat="43.07165" lon="-0.54589">
        <ele>857.15258789062</ele>
        <time>2016-05-05T07:21:58Z</time>
      </trkpt>
      <trkpt lat="43.07168" lon="-0.54597">
        <ele>860.51733398438</ele>
        <time>2016-05-05T07:22:12Z</time>
      </trkpt>
      <trkpt lat="43.07161" lon="-0.54616">
        <ele>862.43994140625</ele>
        <time>2016-05-05T07:22:28Z</time>
      </trkpt>
      <trkpt lat="43.07159" lon="-0.54618">
        <ele>862.92065429688</ele>
        <time>2016-05-05T07:22:32Z</time>
      </trkpt>
      <trkpt lat="43.07148" lon="-0.54623">
        <ele>866.28515625</ele>
        <time>2016-05-05T07:22:50Z</time>
      </trkpt>
      <trkpt lat="43.07133" lon="-0.5461">
        <ele>867.24658203125</ele>
        <time>2016-05-05T07:23:00Z</time>
      </trkpt>
      <trkpt lat="43.07132" lon="-0.54608">
        <ele>867.72705078125</ele>
        <time>2016-05-05T07:23:02Z</time>
      </trkpt>
      <trkpt lat="43.07126" lon="-0.54594">
        <ele>869.64990234375</ele>
        <time>2016-05-05T07:23:15Z</time>
      </trkpt>
      <trkpt lat="43.07115" lon="-0.54605">
        <ele>872.53369140625</ele>
        <time>2016-05-05T07:23:31Z</time>
      </trkpt>
      <trkpt lat="43.07116" lon="-0.54616">
        <ele>872.05297851562</ele>
        <time>2016-05-05T07:23:40Z</time>
      </trkpt>
      <trkpt lat="43.07112" lon="-0.54625">
        <ele>874.45629882812</ele>
        <time>2016-05-05T07:23:53Z</time>
      </trkpt>
      <trkpt lat="43.07113" lon="-0.54626">
        <ele>875.89819335938</ele>
        <time>2016-05-05T07:23:56Z</time>
      </trkpt>
      <trkpt lat="43.07109" lon="-0.5463">
        <ele>878.78247070312</ele>
        <time>2016-05-05T07:24:11Z</time>
      </trkpt>
      <trkpt lat="43.0711" lon="-0.54633">
        <ele>878.3017578125</ele>
        <time>2016-05-05T07:24:23Z</time>
      </trkpt>
      <trkpt lat="43.07107" lon="-0.54629">
        <ele>878.78247070312</ele>
        <time>2016-05-05T07:24:36Z</time>
      </trkpt>
      <trkpt lat="43.07106" lon="-0.5462">
        <ele>880.22436523438</ele>
        <time>2016-05-05T07:24:46Z</time>
      </trkpt>
      <trkpt lat="43.07106" lon="-0.54609">
        <ele>881.66625976562</ele>
        <time>2016-05-05T07:25:00Z</time>
      </trkpt>
      <trkpt lat="43.07096" lon="-0.54608">
        <ele>883.5888671875</ele>
        <time>2016-05-05T07:25:12Z</time>
      </trkpt>
      <trkpt lat="43.07091" lon="-0.54618">
        <ele>885.51147460938</ele>
        <time>2016-05-05T07:25:24Z</time>
      </trkpt>
      <trkpt lat="43.07097" lon="-0.54634">
        <ele>886.47290039062</ele>
        <time>2016-05-05T07:25:39Z</time>
      </trkpt>
      <trkpt lat="43.07088" lon="-0.54631">
        <ele>887.43408203125</ele>
        <time>2016-05-05T07:25:55Z</time>
      </trkpt>
      <trkpt lat="43.07085" lon="-0.54637">
        <ele>888.87622070312</ele>
        <time>2016-05-05T07:26:07Z</time>
      </trkpt>
      <trkpt lat="43.07084" lon="-0.54646">
        <ele>890.31811523438</ele>
        <time>2016-05-05T07:26:22Z</time>
      </trkpt>
      <trkpt lat="43.07081" lon="-0.5466">
        <ele>893.2021484375</ele>
        <time>2016-05-05T07:26:42Z</time>
      </trkpt>
      <trkpt lat="43.07088" lon="-0.54675">
        <ele>896.56689453125</ele>
        <time>2016-05-05T07:26:58Z</time>
      </trkpt>
      <trkpt lat="43.07093" lon="-0.54667">
        <ele>899.93139648438</ele>
        <time>2016-05-05T07:27:18Z</time>
      </trkpt>
      <trkpt lat="43.07093" lon="-0.54654">
        <ele>900.892578125</ele>
        <time>2016-05-05T07:27:32Z</time>
      </trkpt>
      <trkpt lat="43.07086" lon="-0.54641">
        <ele>902.33447265625</ele>
        <time>2016-05-05T07:27:46Z</time>
      </trkpt>
      <trkpt lat="43.07079" lon="-0.54633">
        <ele>903.2958984375</ele>
        <time>2016-05-05T07:27:56Z</time>
      </trkpt>
      <trkpt lat="43.07076" lon="-0.54621">
        <ele>904.73779296875</ele>
        <time>2016-05-05T07:28:11Z</time>
      </trkpt>
      <trkpt lat="43.07075" lon="-0.54619">
        <ele>905.21850585938</ele>
        <time>2016-05-05T07:28:13Z</time>
      </trkpt>
      <trkpt lat="43.07077" lon="-0.54609">
        <ele>906.66040039062</ele>
        <time>2016-05-05T07:28:25Z</time>
      </trkpt>
      <trkpt lat="43.07085" lon="-0.54604">
        <ele>908.58325195312</ele>
        <time>2016-05-05T07:28:33Z</time>
      </trkpt>
      <trkpt lat="43.07084" lon="-0.54601">
        <ele>909.54467773438</ele>
        <time>2016-05-05T07:28:36Z</time>
      </trkpt>
      <trkpt lat="43.07101" lon="-0.54592">
        <ele>912.9091796875</ele>
        <time>2016-05-05T07:28:50Z</time>
      </trkpt>
      <trkpt lat="43.07081" lon="-0.5459">
        <ele>915.79321289062</ele>
        <time>2016-05-05T07:29:07Z</time>
      </trkpt>
      <trkpt lat="43.07073" lon="-0.54598">
        <ele>917.71557617188</ele>
        <time>2016-05-05T07:29:21Z</time>
      </trkpt>
      <trkpt lat="43.07075" lon="-0.54606">
        <ele>921.08032226562</ele>
        <time>2016-05-05T07:29:31Z</time>
      </trkpt>
      <trkpt lat="43.07074" lon="-0.54623">
        <ele>923.96411132812</ele>
        <time>2016-05-05T07:29:52Z</time>
      </trkpt>
      <trkpt lat="43.0708" lon="-0.54626">
        <ele>925.40625</ele>
        <time>2016-05-05T07:29:55Z</time>
      </trkpt>
      <trkpt lat="43.07081" lon="-0.54629">
        <ele>925.88696289062</ele>
        <time>2016-05-05T07:30:11Z</time>
      </trkpt>
      <trkpt lat="43.07077" lon="-0.5463">
        <ele>926.36767578125</ele>
        <time>2016-05-05T07:30:14Z</time>
      </trkpt>
      <trkpt lat="43.07072" lon="-0.54645">
        <ele>927.8095703125</ele>
        <time>2016-05-05T07:30:28Z</time>
      </trkpt>
      <trkpt lat="43.07057" lon="-0.54651">
        <ele>930.212890625</ele>
        <time>2016-05-05T07:30:40Z</time>
      </trkpt>
      <trkpt lat="43.07041" lon="-0.54653">
        <ele>931.65478515625</ele>
        <time>2016-05-05T07:30:51Z</time>
      </trkpt>
      <trkpt lat="43.07034" lon="-0.54662">
        <ele>933.0966796875</ele>
        <time>2016-05-05T07:31:02Z</time>
      </trkpt>
      <trkpt lat="43.07029" lon="-0.54665">
        <ele>935.5</ele>
        <time>2016-05-05T07:31:09Z</time>
      </trkpt>
      <trkpt lat="43.0703" lon="-0.54673">
        <ele>937.9033203125</ele>
        <time>2016-05-05T07:31:21Z</time>
      </trkpt>
      <trkpt lat="43.07026" lon="-0.54663">
        <ele>937.9033203125</ele>
        <time>2016-05-05T07:31:36Z</time>
      </trkpt>
      <trkpt lat="43.07022" lon="-0.54657">
        <ele>941.26806640625</ele>
        <time>2016-05-05T07:31:44Z</time>
      </trkpt>
      <trkpt lat="43.07021" lon="-0.54647">
        <ele>942.71020507812</ele>
        <time>2016-05-05T07:31:59Z</time>
      </trkpt>
      <trkpt lat="43.07017" lon="-0.54643">
        <ele>945.11328125</ele>
        <time>2016-05-05T07:32:04Z</time>
      </trkpt>
      <trkpt lat="43.07019" lon="-0.54632">
        <ele>946.07470703125</ele>
        <time>2016-05-05T07:32:16Z</time>
      </trkpt>
      <trkpt lat="43.07026" lon="-0.54625">
        <ele>947.99731445312</ele>
        <time>2016-05-05T07:32:26Z</time>
      </trkpt>
      <trkpt lat="43.07031" lon="-0.54624">
        <ele>948.95849609375</ele>
        <time>2016-05-05T07:32:35Z</time>
      </trkpt>
      <trkpt lat="43.0702" lon="-0.54632">
        <ele>949.919921875</ele>
        <time>2016-05-05T07:32:47Z</time>
      </trkpt>
      <trkpt lat="43.0701" lon="-0.54638">
        <ele>951.36181640625</ele>
        <time>2016-05-05T07:32:58Z</time>
      </trkpt>
      <trkpt lat="43.07005" lon="-0.54641">
        <ele>951.84252929688</ele>
        <time>2016-05-05T07:33:03Z</time>
      </trkpt>
      <trkpt lat="43.07001" lon="-0.54653">
        <ele>954.24584960938</ele>
        <time>2016-05-05T07:33:18Z</time>
      </trkpt>
      <trkpt lat="43.07007" lon="-0.54669">
        <ele>955.20703125</ele>
        <time>2016-05-05T07:33:29Z</time>
      </trkpt>
      <trkpt lat="43.07009" lon="-0.54683">
        <ele>956.16845703125</ele>
        <time>2016-05-05T07:33:44Z</time>
      </trkpt>
      <trkpt lat="43.07004" lon="-0.54697">
        <ele>959.533203125</ele>
        <time>2016-05-05T07:33:58Z</time>
      </trkpt>
      <trkpt lat="43.06989" lon="-0.54713">
        <ele>959.533203125</ele>
        <time>2016-05-05T07:34:40Z</time>
      </trkpt>
      <trkpt lat="43.07003" lon="-0.54724">
        <ele>962.89770507812</ele>
        <time>2016-05-05T07:34:52Z</time>
      </trkpt>
      <trkpt lat="43.07002" lon="-0.54735">
        <ele>965.78173828125</ele>
        <time>2016-05-05T07:35:07Z</time>
      </trkpt>
      <trkpt lat="43.07009" lon="-0.54753">
        <ele>969.14624023438</ele>
        <time>2016-05-05T07:35:24Z</time>
      </trkpt>
      <trkpt lat="43.07" lon="-0.54749">
        <ele>972.0302734375</ele>
        <time>2016-05-05T07:35:40Z</time>
      </trkpt>
      <trkpt lat="43.06997" lon="-0.54742">
        <ele>974.43359375</ele>
        <time>2016-05-05T07:35:52Z</time>
      </trkpt>
      <trkpt lat="43.0699" lon="-0.54735">
        <ele>976.35620117188</ele>
        <time>2016-05-05T07:36:07Z</time>
      </trkpt>
      <trkpt lat="43.06978" lon="-0.54727">
        <ele>978.27880859375</ele>
        <time>2016-05-05T07:36:26Z</time>
      </trkpt>
      <trkpt lat="43.06984" lon="-0.54729">
        <ele>977.79809570312</ele>
        <time>2016-05-05T07:36:48Z</time>
      </trkpt>
      <trkpt lat="43.06974" lon="-0.54736">
        <ele>978.27880859375</ele>
        <time>2016-05-05T07:36:58Z</time>
      </trkpt>
      <trkpt lat="43.06951" lon="-0.54732">
        <ele>980.20141601562</ele>
        <time>2016-05-05T07:37:14Z</time>
      </trkpt>
      <trkpt lat="43.06962" lon="-0.5474">
        <ele>983.08520507812</ele>
        <time>2016-05-05T07:37:26Z</time>
      </trkpt>
      <trkpt lat="43.06969" lon="-0.5475">
        <ele>986.44995117188</ele>
        <time>2016-05-05T07:37:36Z</time>
      </trkpt>
      <trkpt lat="43.06979" lon="-0.54769">
        <ele>988.37280273438</ele>
        <time>2016-05-05T07:37:56Z</time>
      </trkpt>
      <trkpt lat="43.06974" lon="-0.54765">
        <ele>985.00805664062</ele>
        <time>2016-05-05T07:39:22Z</time>
      </trkpt>
      <trkpt lat="43.06974" lon="-0.54763">
        <ele>985.00805664062</ele>
        <time>2016-05-05T07:39:41Z</time>
      </trkpt>
      <trkpt lat="43.06981" lon="-0.54781">
        <ele>988.853515625</ele>
        <time>2016-05-05T07:40:15Z</time>
      </trkpt>
      <trkpt lat="43.0698" lon="-0.54778">
        <ele>990.29541015625</ele>
        <time>2016-05-05T07:40:21Z</time>
      </trkpt>
      <trkpt lat="43.06969" lon="-0.54783">
        <ele>993.65991210938</ele>
        <time>2016-05-05T07:40:36Z</time>
      </trkpt>
      <trkpt lat="43.06968" lon="-0.54785">
        <ele>995.10180664062</ele>
        <time>2016-05-05T07:40:41Z</time>
      </trkpt>
      <trkpt lat="43.06969" lon="-0.54788">
        <ele>996.06323242188</ele>
        <time>2016-05-05T07:40:49Z</time>
      </trkpt>
      <trkpt lat="43.06961" lon="-0.54784">
        <ele>999.427734375</ele>
        <time>2016-05-05T07:41:09Z</time>
      </trkpt>
      <trkpt lat="43.06964" lon="-0.54779">
        <ele>1002.3115234375</ele>
        <time>2016-05-05T07:41:23Z</time>
      </trkpt>
      <trkpt lat="43.06954" lon="-0.54769">
        <ele>1003.2729492188</ele>
        <time>2016-05-05T07:41:40Z</time>
      </trkpt>
      <trkpt lat="43.06948" lon="-0.54766">
        <ele>1005.6765136719</ele>
        <time>2016-05-05T07:41:51Z</time>
      </trkpt>
      <trkpt lat="43.0694" lon="-0.5476">
        <ele>1009.041015625</ele>
        <time>2016-05-05T07:42:05Z</time>
      </trkpt>
      <trkpt lat="43.06935" lon="-0.5476">
        <ele>1010.4829101562</ele>
        <time>2016-05-05T07:42:18Z</time>
      </trkpt>
      <trkpt lat="43.06941" lon="-0.54775">
        <ele>1013.3669433594</ele>
        <time>2016-05-05T07:42:37Z</time>
      </trkpt>
      <trkpt lat="43.06936" lon="-0.54781">
        <ele>1015.2895507812</ele>
        <time>2016-05-05T07:42:51Z</time>
      </trkpt>
      <trkpt lat="43.06946" lon="-0.54786">
        <ele>1017.2121582031</ele>
        <time>2016-05-05T07:43:12Z</time>
      </trkpt>
      <trkpt lat="43.06942" lon="-0.54785">
        <ele>1017.6926269531</ele>
        <time>2016-05-05T07:43:32Z</time>
      </trkpt>
      <trkpt lat="43.06936" lon="-0.54783">
        <ele>1020.5769042969</ele>
        <time>2016-05-05T07:43:44Z</time>
      </trkpt>
      <trkpt lat="43.06931" lon="-0.5479">
        <ele>1023.94140625</ele>
        <time>2016-05-05T07:44:01Z</time>
      </trkpt>
      <trkpt lat="43.06926" lon="-0.54789">
        <ele>1026.8254394531</ele>
        <time>2016-05-05T07:44:16Z</time>
      </trkpt>
      <trkpt lat="43.06923" lon="-0.54796">
        <ele>1027.7866210938</ele>
        <time>2016-05-05T07:44:28Z</time>
      </trkpt>
      <trkpt lat="43.06922" lon="-0.54799">
        <ele>1030.6706542969</ele>
        <time>2016-05-05T07:44:37Z</time>
      </trkpt>
      <trkpt lat="43.06917" lon="-0.54799">
        <ele>1032.1125488281</ele>
        <time>2016-05-05T07:44:53Z</time>
      </trkpt>
      <trkpt lat="43.06918" lon="-0.54803">
        <ele>1034.9965820312</ele>
        <time>2016-05-05T07:44:57Z</time>
      </trkpt>
      <trkpt lat="43.0692" lon="-0.54816">
        <ele>1037.3999023438</ele>
        <time>2016-05-05T07:45:14Z</time>
      </trkpt>
      <trkpt lat="43.06913" lon="-0.54818">
        <ele>1040.2839355469</ele>
        <time>2016-05-05T07:45:28Z</time>
      </trkpt>
      <trkpt lat="43.06907" lon="-0.54808">
        <ele>1042.2065429688</ele>
        <time>2016-05-05T07:45:43Z</time>
      </trkpt>
      <trkpt lat="43.06909" lon="-0.54813">
        <ele>1045.5710449219</ele>
        <time>2016-05-05T07:45:55Z</time>
      </trkpt>
      <trkpt lat="43.06916" lon="-0.54822">
        <ele>1048.4548339844</ele>
        <time>2016-05-05T07:46:10Z</time>
      </trkpt>
      <trkpt lat="43.06913" lon="-0.5483">
        <ele>1051.8195800781</ele>
        <time>2016-05-05T07:46:25Z</time>
      </trkpt>
      <trkpt lat="43.06907" lon="-0.5483">
        <ele>1054.7036132812</ele>
        <time>2016-05-05T07:46:39Z</time>
      </trkpt>
      <trkpt lat="43.06899" lon="-0.54824">
        <ele>1056.6262207031</ele>
        <time>2016-05-05T07:46:53Z</time>
      </trkpt>
      <trkpt lat="43.06893" lon="-0.54817">
        <ele>1059.5102539062</ele>
        <time>2016-05-05T07:47:05Z</time>
      </trkpt>
      <trkpt lat="43.06888" lon="-0.54814">
        <ele>1061.4328613281</ele>
        <time>2016-05-05T07:47:33Z</time>
      </trkpt>
      <trkpt lat="43.06893" lon="-0.54827">
        <ele>1064.3166503906</ele>
        <time>2016-05-05T07:47:48Z</time>
      </trkpt>
      <trkpt lat="43.06888" lon="-0.54838">
        <ele>1066.7199707031</ele>
        <time>2016-05-05T07:48:02Z</time>
      </trkpt>
      <trkpt lat="43.06882" lon="-0.54846">
        <ele>1069.6042480469</ele>
        <time>2016-05-05T07:48:17Z</time>
      </trkpt>
      <trkpt lat="43.06879" lon="-0.54843">
        <ele>1073.4494628906</ele>
        <time>2016-05-05T07:48:33Z</time>
      </trkpt>
      <trkpt lat="43.06877" lon="-0.54854">
        <ele>1074.4106445312</ele>
        <time>2016-05-05T07:48:47Z</time>
      </trkpt>
      <trkpt lat="43.06867" lon="-0.54857">
        <ele>1078.255859375</ele>
        <time>2016-05-05T07:49:02Z</time>
      </trkpt>
      <trkpt lat="43.06861" lon="-0.54855">
        <ele>1080.6591796875</ele>
        <time>2016-05-05T07:49:16Z</time>
      </trkpt>
      <trkpt lat="43.0686" lon="-0.54863">
        <ele>1083.54296875</ele>
        <time>2016-05-05T07:49:32Z</time>
      </trkpt>
      <trkpt lat="43.06859" lon="-0.54867">
        <ele>1084.5046386719</ele>
        <time>2016-05-05T07:49:37Z</time>
      </trkpt>
      <trkpt lat="43.06855" lon="-0.54876">
        <ele>1087.3884277344</ele>
        <time>2016-05-05T07:49:53Z</time>
      </trkpt>
      <trkpt lat="43.06854" lon="-0.54878">
        <ele>1088.8305664062</ele>
        <time>2016-05-05T07:49:57Z</time>
      </trkpt>
      <trkpt lat="43.06848" lon="-0.54882">
        <ele>1090.2724609375</ele>
        <time>2016-05-05T07:50:11Z</time>
      </trkpt>
      <trkpt lat="43.06845" lon="-0.54889">
        <ele>1093.15625</ele>
        <time>2016-05-05T07:50:23Z</time>
      </trkpt>
      <trkpt lat="43.06844" lon="-0.54897">
        <ele>1093.6369628906</ele>
        <time>2016-05-05T07:50:35Z</time>
      </trkpt>
      <trkpt lat="43.0684" lon="-0.54904">
        <ele>1097.0014648438</ele>
        <time>2016-05-05T07:50:47Z</time>
      </trkpt>
      <trkpt lat="43.06839" lon="-0.54906">
        <ele>1097.962890625</ele>
        <time>2016-05-05T07:50:51Z</time>
      </trkpt>
      <trkpt lat="43.06837" lon="-0.5491">
        <ele>1099.4047851562</ele>
        <time>2016-05-05T07:50:58Z</time>
      </trkpt>
      <trkpt lat="43.06835" lon="-0.54917">
        <ele>1102.2888183594</ele>
        <time>2016-05-05T07:51:10Z</time>
      </trkpt>
      <trkpt lat="43.0683" lon="-0.54924">
        <ele>1103.2502441406</ele>
        <time>2016-05-05T07:51:24Z</time>
      </trkpt>
      <trkpt lat="43.06823" lon="-0.5493">
        <ele>1107.0954589844</ele>
        <time>2016-05-05T07:51:37Z</time>
      </trkpt>
      <trkpt lat="43.06823" lon="-0.5493">
        <ele>1106.6147460938</ele>
        <time>2016-05-05T07:51:38Z</time>
      </trkpt>
      <trkpt lat="43.06816" lon="-0.54934">
        <ele>1108.0568847656</ele>
        <time>2016-05-05T07:51:51Z</time>
      </trkpt>
      <trkpt lat="43.06811" lon="-0.54928">
        <ele>1109.9792480469</ele>
        <time>2016-05-05T07:52:04Z</time>
      </trkpt>
      <trkpt lat="43.06813" lon="-0.54921">
        <ele>1112.3825683594</ele>
        <time>2016-05-05T07:52:16Z</time>
      </trkpt>
      <trkpt lat="43.06808" lon="-0.54916">
        <ele>1114.7858886719</ele>
        <time>2016-05-05T07:52:30Z</time>
      </trkpt>
      <trkpt lat="43.06809" lon="-0.54911">
        <ele>1116.2280273438</ele>
        <time>2016-05-05T07:52:37Z</time>
      </trkpt>
      <trkpt lat="43.06805" lon="-0.54906">
        <ele>1118.1506347656</ele>
        <time>2016-05-05T07:52:49Z</time>
      </trkpt>
      <trkpt lat="43.06798" lon="-0.54902">
        <ele>1119.1120605469</ele>
        <time>2016-05-05T07:53:04Z</time>
      </trkpt>
      <trkpt lat="43.06792" lon="-0.54898">
        <ele>1121.0346679688</ele>
        <time>2016-05-05T07:53:17Z</time>
      </trkpt>
      <trkpt lat="43.06788" lon="-0.54885">
        <ele>1122.9572753906</ele>
        <time>2016-05-05T07:53:34Z</time>
      </trkpt>
      <trkpt lat="43.06784" lon="-0.5488">
        <ele>1124.8798828125</ele>
        <time>2016-05-05T07:53:46Z</time>
      </trkpt>
      <trkpt lat="43.06782" lon="-0.54876">
        <ele>1127.763671875</ele>
        <time>2016-05-05T07:53:59Z</time>
      </trkpt>
      <trkpt lat="43.06781" lon="-0.54875">
        <ele>1128.2443847656</ele>
        <time>2016-05-05T07:54:00Z</time>
      </trkpt>
      <trkpt lat="43.06777" lon="-0.54868">
        <ele>1130.6477050781</ele>
        <time>2016-05-05T07:54:15Z</time>
      </trkpt>
      <trkpt lat="43.06775" lon="-0.5486">
        <ele>1132.08984375</ele>
        <time>2016-05-05T07:54:29Z</time>
      </trkpt>
      <trkpt lat="43.06776" lon="-0.54858">
        <ele>1133.5317382812</ele>
        <time>2016-05-05T07:54:32Z</time>
      </trkpt>
      <trkpt lat="43.06778" lon="-0.54851">
        <ele>1136.4157714844</ele>
        <time>2016-05-05T07:54:46Z</time>
      </trkpt>
      <trkpt lat="43.06782" lon="-0.54845">
        <ele>1137.8576660156</ele>
        <time>2016-05-05T07:54:59Z</time>
      </trkpt>
      <trkpt lat="43.0678" lon="-0.54841">
        <ele>1141.2221679688</ele>
        <time>2016-05-05T07:55:13Z</time>
      </trkpt>
      <trkpt lat="43.06772" lon="-0.54842">
        <ele>1141.7028808594</ele>
        <time>2016-05-05T07:55:26Z</time>
      </trkpt>
      <trkpt lat="43.06768" lon="-0.54846">
        <ele>1143.6254882812</ele>
        <time>2016-05-05T07:55:41Z</time>
      </trkpt>
      <trkpt lat="43.06766" lon="-0.54848">
        <ele>1146.5095214844</ele>
        <time>2016-05-05T07:55:54Z</time>
      </trkpt>
      <trkpt lat="43.06752" lon="-0.54852">
        <ele>1148.9128417969</ele>
        <time>2016-05-05T07:56:18Z</time>
      </trkpt>
      <trkpt lat="43.06752" lon="-0.54855">
        <ele>1151.796875</ele>
        <time>2016-05-05T07:56:37Z</time>
      </trkpt>
      <trkpt lat="43.06743" lon="-0.54863">
        <ele>1153.2387695312</ele>
        <time>2016-05-05T07:57:01Z</time>
      </trkpt>
      <trkpt lat="43.06742" lon="-0.54861">
        <ele>1151.796875</ele>
        <time>2016-05-05T07:57:03Z</time>
      </trkpt>
      <trkpt lat="43.06738" lon="-0.54854">
        <ele>1153.7194824219</ele>
        <time>2016-05-05T07:57:14Z</time>
      </trkpt>
      <trkpt lat="43.06733" lon="-0.54858">
        <ele>1155.1613769531</ele>
        <time>2016-05-05T07:57:26Z</time>
      </trkpt>
      <trkpt lat="43.0673" lon="-0.5486">
        <ele>1156.6032714844</ele>
        <time>2016-05-05T07:57:32Z</time>
      </trkpt>
      <trkpt lat="43.06723" lon="-0.54868">
        <ele>1159.0065917969</ele>
        <time>2016-05-05T07:57:49Z</time>
      </trkpt>
      <trkpt lat="43.06717" lon="-0.54872">
        <ele>1161.4099121094</ele>
        <time>2016-05-05T07:58:04Z</time>
      </trkpt>
      <trkpt lat="43.06715" lon="-0.54873">
        <ele>1163.3325195312</ele>
        <time>2016-05-05T07:58:12Z</time>
      </trkpt>
      <trkpt lat="43.0671" lon="-0.54877">
        <ele>1164.7746582031</ele>
        <time>2016-05-05T07:58:19Z</time>
      </trkpt>
      <trkpt lat="43.06703" lon="-0.5488">
        <ele>1166.2165527344</ele>
        <time>2016-05-05T07:58:31Z</time>
      </trkpt>
      <trkpt lat="43.06695" lon="-0.54886">
        <ele>1168.1391601562</ele>
        <time>2016-05-05T07:58:45Z</time>
      </trkpt>
      <trkpt lat="43.06692" lon="-0.5489">
        <ele>1169.1005859375</ele>
        <time>2016-05-05T07:58:55Z</time>
      </trkpt>
      <trkpt lat="43.06687" lon="-0.54898">
        <ele>1170.0617675781</ele>
        <time>2016-05-05T07:59:07Z</time>
      </trkpt>
      <trkpt lat="43.06682" lon="-0.54903">
        <ele>1173.4265136719</ele>
        <time>2016-05-05T07:59:24Z</time>
      </trkpt>
      <trkpt lat="43.0667" lon="-0.54909">
        <ele>1176.3103027344</ele>
        <time>2016-05-05T07:59:44Z</time>
      </trkpt>
      <trkpt lat="43.06664" lon="-0.5492">
        <ele>1179.6748046875</ele>
        <time>2016-05-05T07:59:56Z</time>
      </trkpt>
      <trkpt lat="43.06658" lon="-0.54926">
        <ele>1181.1171875</ele>
        <time>2016-05-05T08:00:09Z</time>
      </trkpt>
      <trkpt lat="43.06655" lon="-0.54927">
        <ele>1183.5202636719</ele>
        <time>2016-05-05T08:00:22Z</time>
      </trkpt>
      <trkpt lat="43.06648" lon="-0.54927">
        <ele>1184.9624023438</ele>
        <time>2016-05-05T08:00:35Z</time>
      </trkpt>
      <trkpt lat="43.06639" lon="-0.54927">
        <ele>1186.404296875</ele>
        <time>2016-05-05T08:00:48Z</time>
      </trkpt>
      <trkpt lat="43.06632" lon="-0.54929">
        <ele>1189.2880859375</ele>
        <time>2016-05-05T08:01:00Z</time>
      </trkpt>
      <trkpt lat="43.06628" lon="-0.54934">
        <ele>1192.6528320312</ele>
        <time>2016-05-05T08:01:16Z</time>
      </trkpt>
      <trkpt lat="43.06628" lon="-0.54934">
        <ele>1192.6528320312</ele>
        <time>2016-05-05T08:01:17Z</time>
      </trkpt>
      <trkpt lat="43.06625" lon="-0.54937">
        <ele>1194.0947265625</ele>
        <time>2016-05-05T08:01:25Z</time>
      </trkpt>
      <trkpt lat="43.0662" lon="-0.54945">
        <ele>1196.9787597656</ele>
        <time>2016-05-05T08:01:41Z</time>
      </trkpt>
      <trkpt lat="43.06616" lon="-0.54954">
        <ele>1199.8627929688</ele>
        <time>2016-05-05T08:01:57Z</time>
      </trkpt>
      <trkpt lat="43.06617" lon="-0.54959">
        <ele>1200.3435058594</ele>
        <time>2016-05-05T08:02:17Z</time>
      </trkpt>
      <trkpt lat="43.06614" lon="-0.54957">
        <ele>1201.7854003906</ele>
        <time>2016-05-05T08:02:40Z</time>
      </trkpt>
      <trkpt lat="43.06611" lon="-0.54964">
        <ele>1204.6691894531</ele>
        <time>2016-05-05T08:02:53Z</time>
      </trkpt>
      <trkpt lat="43.06609" lon="-0.54969">
        <ele>1206.1110839844</ele>
        <time>2016-05-05T08:03:06Z</time>
      </trkpt>
      <trkpt lat="43.06605" lon="-0.54972">
        <ele>1208.0339355469</ele>
        <time>2016-05-05T08:03:15Z</time>
      </trkpt>
      <trkpt lat="43.06602" lon="-0.54979">
        <ele>1209.9562988281</ele>
        <time>2016-05-05T08:03:32Z</time>
      </trkpt>
      <trkpt lat="43.066" lon="-0.54984">
        <ele>1210.9177246094</ele>
        <time>2016-05-05T08:04:02Z</time>
      </trkpt>
      <trkpt lat="43.06594" lon="-0.5499">
        <ele>1213.3212890625</ele>
        <time>2016-05-05T08:04:17Z</time>
      </trkpt>
      <trkpt lat="43.06588" lon="-0.54998">
        <ele>1216.6857910156</ele>
        <time>2016-05-05T08:04:33Z</time>
      </trkpt>
      <trkpt lat="43.06582" lon="-0.55003">
        <ele>1218.6083984375</ele>
        <time>2016-05-05T08:04:47Z</time>
      </trkpt>
      <trkpt lat="43.06578" lon="-0.55007">
        <ele>1221.4921875</ele>
        <time>2016-05-05T08:05:00Z</time>
      </trkpt>
      <trkpt lat="43.06575" lon="-0.55018">
        <ele>1224.3762207031</ele>
        <time>2016-05-05T08:05:19Z</time>
      </trkpt>
      <trkpt lat="43.0657" lon="-0.55028">
        <ele>1227.7407226562</ele>
        <time>2016-05-05T08:05:38Z</time>
      </trkpt>
      <trkpt lat="43.06566" lon="-0.55037">
        <ele>1230.1442871094</ele>
        <time>2016-05-05T08:05:54Z</time>
      </trkpt>
      <trkpt lat="43.06564" lon="-0.55045">
        <ele>1231.5861816406</ele>
        <time>2016-05-05T08:06:08Z</time>
      </trkpt>
      <trkpt lat="43.06563" lon="-0.55047">
        <ele>1233.9895019531</ele>
        <time>2016-05-05T08:06:23Z</time>
      </trkpt>
      <trkpt lat="43.06571" lon="-0.5505">
        <ele>1233.5087890625</ele>
        <time>2016-05-05T08:07:42Z</time>
      </trkpt>
      <trkpt lat="43.06568" lon="-0.55058">
        <ele>1235.912109375</ele>
        <time>2016-05-05T08:07:56Z</time>
      </trkpt>
      <trkpt lat="43.06564" lon="-0.55069">
        <ele>1238.3154296875</ele>
        <time>2016-05-05T08:08:15Z</time>
      </trkpt>
      <trkpt lat="43.0656" lon="-0.55084">
        <ele>1240.7185058594</ele>
        <time>2016-05-05T08:08:42Z</time>
      </trkpt>
      <trkpt lat="43.06557" lon="-0.55102">
        <ele>1242.6413574219</ele>
        <time>2016-05-05T08:08:59Z</time>
      </trkpt>
      <trkpt lat="43.06553" lon="-0.55111">
        <ele>1244.5639648438</ele>
        <time>2016-05-05T08:09:16Z</time>
      </trkpt>
      <trkpt lat="43.0655" lon="-0.55115">
        <ele>1247.9287109375</ele>
        <time>2016-05-05T08:09:26Z</time>
      </trkpt>
      <trkpt lat="43.06547" lon="-0.55111">
        <ele>1250.33203125</ele>
        <time>2016-05-05T08:09:43Z</time>
      </trkpt>
      <trkpt lat="43.06541" lon="-0.55117">
        <ele>1253.6965332031</ele>
        <time>2016-05-05T08:10:00Z</time>
      </trkpt>
      <trkpt lat="43.06539" lon="-0.5513">
        <ele>1256.5803222656</ele>
        <time>2016-05-05T08:10:18Z</time>
      </trkpt>
      <trkpt lat="43.06538" lon="-0.5514">
        <ele>1258.0224609375</ele>
        <time>2016-05-05T08:10:34Z</time>
      </trkpt>
      <trkpt lat="43.06532" lon="-0.55152">
        <ele>1260.42578125</ele>
        <time>2016-05-05T08:10:51Z</time>
      </trkpt>
      <trkpt lat="43.06531" lon="-0.55163">
        <ele>1261.8679199219</ele>
        <time>2016-05-05T08:11:07Z</time>
      </trkpt>
      <trkpt lat="43.06528" lon="-0.55174">
        <ele>1263.3098144531</ele>
        <time>2016-05-05T08:11:21Z</time>
      </trkpt>
      <trkpt lat="43.06529" lon="-0.55184">
        <ele>1265.232421875</ele>
        <time>2016-05-05T08:11:34Z</time>
      </trkpt>
      <trkpt lat="43.06535" lon="-0.55191">
        <ele>1268.1162109375</ele>
        <time>2016-05-05T08:11:48Z</time>
      </trkpt>
      <trkpt lat="43.06533" lon="-0.55203">
        <ele>1270.51953125</ele>
        <time>2016-05-05T08:12:06Z</time>
      </trkpt>
      <trkpt lat="43.06538" lon="-0.55208">
        <ele>1273.4035644531</ele>
        <time>2016-05-05T08:12:20Z</time>
      </trkpt>
      <trkpt lat="43.06547" lon="-0.55214">
        <ele>1275.806640625</ele>
        <time>2016-05-05T08:12:35Z</time>
      </trkpt>
      <trkpt lat="43.06549" lon="-0.55222">
        <ele>1277.7294921875</ele>
        <time>2016-05-05T08:12:50Z</time>
      </trkpt>
      <trkpt lat="43.06552" lon="-0.55227">
        <ele>1280.1328125</ele>
        <time>2016-05-05T08:13:03Z</time>
      </trkpt>
      <trkpt lat="43.06557" lon="-0.55235">
        <ele>1282.5361328125</ele>
        <time>2016-05-05T08:13:20Z</time>
      </trkpt>
      <trkpt lat="43.06556" lon="-0.55245">
        <ele>1283.4973144531</ele>
        <time>2016-05-05T08:13:32Z</time>
      </trkpt>
      <trkpt lat="43.06554" lon="-0.55257">
        <ele>1285.419921875</ele>
        <time>2016-05-05T08:13:49Z</time>
      </trkpt>
      <trkpt lat="43.06551" lon="-0.55268">
        <ele>1288.3039550781</ele>
        <time>2016-05-05T08:14:05Z</time>
      </trkpt>
      <trkpt lat="43.06546" lon="-0.55273">
        <ele>1290.70703125</ele>
        <time>2016-05-05T08:14:21Z</time>
      </trkpt>
      <trkpt lat="43.0655" lon="-0.55278">
        <ele>1294.0720214844</ele>
        <time>2016-05-05T08:14:37Z</time>
      </trkpt>
      <trkpt lat="43.0655" lon="-0.55284">
        <ele>1297.4365234375</ele>
        <time>2016-05-05T08:14:54Z</time>
      </trkpt>
      <trkpt lat="43.06548" lon="-0.55296">
        <ele>1299.83984375</ele>
        <time>2016-05-05T08:15:12Z</time>
      </trkpt>
      <trkpt lat="43.06547" lon="-0.55302">
        <ele>1301.7624511719</ele>
        <time>2016-05-05T08:15:20Z</time>
      </trkpt>
      <trkpt lat="43.06546" lon="-0.55308">
        <ele>1304.1657714844</ele>
        <time>2016-05-05T08:15:40Z</time>
      </trkpt>
      <trkpt lat="43.06543" lon="-0.55316">
        <ele>1307.0495605469</ele>
        <time>2016-05-05T08:15:57Z</time>
      </trkpt>
      <trkpt lat="43.06545" lon="-0.55327">
        <ele>1310.4143066406</ele>
        <time>2016-05-05T08:16:10Z</time>
      </trkpt>
      <trkpt lat="43.06542" lon="-0.55339">
        <ele>1310.4143066406</ele>
        <time>2016-05-05T08:16:23Z</time>
      </trkpt>
      <trkpt lat="43.06534" lon="-0.55354">
        <ele>1312.8176269531</ele>
        <time>2016-05-05T08:16:40Z</time>
      </trkpt>
      <trkpt lat="43.06531" lon="-0.55361">
        <ele>1314.2595214844</ele>
        <time>2016-05-05T08:16:52Z</time>
      </trkpt>
      <trkpt lat="43.0653" lon="-0.55368">
        <ele>1313.7788085938</ele>
        <time>2016-05-05T08:17:04Z</time>
      </trkpt>
      <trkpt lat="43.06515" lon="-0.55384">
        <ele>1313.2983398438</ele>
        <time>2016-05-05T08:17:21Z</time>
      </trkpt>
      <trkpt lat="43.06512" lon="-0.55387">
        <ele>1313.7788085938</ele>
        <time>2016-05-05T08:17:26Z</time>
      </trkpt>
      <trkpt lat="43.06507" lon="-0.554">
        <ele>1315.2209472656</ele>
        <time>2016-05-05T08:17:39Z</time>
      </trkpt>
      <trkpt lat="43.06498" lon="-0.55402">
        <ele>1317.1435546875</ele>
        <time>2016-05-05T08:17:54Z</time>
      </trkpt>
      <trkpt lat="43.06497" lon="-0.55402">
        <ele>1318.1047363281</ele>
        <time>2016-05-05T08:17:58Z</time>
      </trkpt>
      <trkpt lat="43.06493" lon="-0.554">
        <ele>1320.5080566406</ele>
        <time>2016-05-05T08:18:12Z</time>
      </trkpt>
      <trkpt lat="43.06487" lon="-0.55397">
        <ele>1321.9499511719</ele>
        <time>2016-05-05T08:18:23Z</time>
      </trkpt>
      <trkpt lat="43.06478" lon="-0.55403">
        <ele>1324.353515625</ele>
        <time>2016-05-05T08:18:37Z</time>
      </trkpt>
      <trkpt lat="43.06473" lon="-0.55408">
        <ele>1327.7180175781</ele>
        <time>2016-05-05T08:18:52Z</time>
      </trkpt>
      <trkpt lat="43.06472" lon="-0.55416">
        <ele>1330.1213378906</ele>
        <time>2016-05-05T08:19:06Z</time>
      </trkpt>
      <trkpt lat="43.06468" lon="-0.55421">
        <ele>1332.0439453125</ele>
        <time>2016-05-05T08:19:17Z</time>
      </trkpt>
      <trkpt lat="43.06466" lon="-0.55428">
        <ele>1333.9665527344</ele>
        <time>2016-05-05T08:19:29Z</time>
      </trkpt>
      <trkpt lat="43.0646" lon="-0.55432">
        <ele>1336.3698730469</ele>
        <time>2016-05-05T08:19:42Z</time>
      </trkpt>
      <trkpt lat="43.06455" lon="-0.55432">
        <ele>1338.2924804688</ele>
        <time>2016-05-05T08:19:54Z</time>
      </trkpt>
      <trkpt lat="43.06448" lon="-0.55428">
        <ele>1338.7731933594</ele>
        <time>2016-05-05T08:20:10Z</time>
      </trkpt>
      <trkpt lat="43.06442" lon="-0.55431">
        <ele>1338.7731933594</ele>
        <time>2016-05-05T08:20:16Z</time>
      </trkpt>
      <trkpt lat="43.06427" lon="-0.55442">
        <ele>1339.2536621094</ele>
        <time>2016-05-05T08:20:35Z</time>
      </trkpt>
      <trkpt lat="43.06423" lon="-0.55448">
        <ele>1339.734375</ele>
        <time>2016-05-05T08:20:52Z</time>
      </trkpt>
      <trkpt lat="43.06411" lon="-0.55453">
        <ele>1339.734375</ele>
        <time>2016-05-05T08:21:07Z</time>
      </trkpt>
      <trkpt lat="43.06402" lon="-0.55455">
        <ele>1339.734375</ele>
        <time>2016-05-05T08:21:15Z</time>
      </trkpt>
      <trkpt lat="43.06398" lon="-0.55453">
        <ele>1340.2153320312</ele>
        <time>2016-05-05T08:21:19Z</time>
      </trkpt>
      <trkpt lat="43.06386" lon="-0.55472">
        <ele>1343.5798339844</ele>
        <time>2016-05-05T08:21:40Z</time>
      </trkpt>
      <trkpt lat="43.06379" lon="-0.55486">
        <ele>1344.541015625</ele>
        <time>2016-05-05T08:21:55Z</time>
      </trkpt>
      <trkpt lat="43.06374" lon="-0.555">
        <ele>1347.9057617188</ele>
        <time>2016-05-05T08:22:10Z</time>
      </trkpt>
      <trkpt lat="43.06371" lon="-0.55515">
        <ele>1350.3090820312</ele>
        <time>2016-05-05T08:22:26Z</time>
      </trkpt>
      <trkpt lat="43.06369" lon="-0.55529">
        <ele>1351.7509765625</ele>
        <time>2016-05-05T08:22:41Z</time>
      </trkpt>
      <trkpt lat="43.06366" lon="-0.55535">
        <ele>1355.5961914062</ele>
        <time>2016-05-05T08:22:53Z</time>
      </trkpt>
      <trkpt lat="43.06363" lon="-0.55545">
        <ele>1357.5190429688</ele>
        <time>2016-05-05T08:23:09Z</time>
      </trkpt>
      <trkpt lat="43.0636" lon="-0.55556">
        <ele>1360.4028320312</ele>
        <time>2016-05-05T08:23:24Z</time>
      </trkpt>
      <trkpt lat="43.06357" lon="-0.55566">
        <ele>1361.8449707031</ele>
        <time>2016-05-05T08:23:39Z</time>
      </trkpt>
      <trkpt lat="43.06355" lon="-0.5557">
        <ele>1365.2094726562</ele>
        <time>2016-05-05T08:23:49Z</time>
      </trkpt>
      <trkpt lat="43.06356" lon="-0.55579">
        <ele>1368.0932617188</ele>
        <time>2016-05-05T08:24:07Z</time>
      </trkpt>
      <trkpt lat="43.06357" lon="-0.55584">
        <ele>1369.0546875</ele>
        <time>2016-05-05T08:24:23Z</time>
      </trkpt>
      <trkpt lat="43.06367" lon="-0.5559">
        <ele>1369.0546875</ele>
        <time>2016-05-05T08:24:53Z</time>
      </trkpt>
      <trkpt lat="43.06367" lon="-0.55598">
        <ele>1371.4577636719</ele>
        <time>2016-05-05T08:25:08Z</time>
      </trkpt>
      <trkpt lat="43.06366" lon="-0.55605">
        <ele>1374.3420410156</ele>
        <time>2016-05-05T08:25:20Z</time>
      </trkpt>
      <trkpt lat="43.06369" lon="-0.55613">
        <ele>1377.7065429688</ele>
        <time>2016-05-05T08:25:34Z</time>
      </trkpt>
      <trkpt lat="43.0637" lon="-0.55622">
        <ele>1379.6291503906</ele>
        <time>2016-05-05T08:25:49Z</time>
      </trkpt>
      <trkpt lat="43.0637" lon="-0.55636">
        <ele>1382.9936523438</ele>
        <time>2016-05-05T08:26:05Z</time>
      </trkpt>
      <trkpt lat="43.06375" lon="-0.55648">
        <ele>1384.9165039062</ele>
        <time>2016-05-05T08:26:20Z</time>
      </trkpt>
      <trkpt lat="43.06374" lon="-0.55664">
        <ele>1386.8388671875</ele>
        <time>2016-05-05T08:26:37Z</time>
      </trkpt>
      <trkpt lat="43.0637" lon="-0.55668">
        <ele>1388.28125</ele>
        <time>2016-05-05T08:26:51Z</time>
      </trkpt>
      <trkpt lat="43.06363" lon="-0.55676">
        <ele>1389.7231445312</ele>
        <time>2016-05-05T08:27:07Z</time>
      </trkpt>
      <trkpt lat="43.0636" lon="-0.55681">
        <ele>1390.6843261719</ele>
        <time>2016-05-05T08:27:28Z</time>
      </trkpt>
      <trkpt lat="43.06354" lon="-0.55681">
        <ele>1392.1264648438</ele>
        <time>2016-05-05T08:27:40Z</time>
      </trkpt>
      <trkpt lat="43.06349" lon="-0.55686">
        <ele>1393.568359375</ele>
        <time>2016-05-05T08:27:50Z</time>
      </trkpt>
      <trkpt lat="43.06343" lon="-0.55697">
        <ele>1395.0102539062</ele>
        <time>2016-05-05T08:28:06Z</time>
      </trkpt>
      <trkpt lat="43.06339" lon="-0.55699">
        <ele>1396.9328613281</ele>
        <time>2016-05-05T08:28:18Z</time>
      </trkpt>
      <trkpt lat="43.06332" lon="-0.55699">
        <ele>1398.85546875</ele>
        <time>2016-05-05T08:28:31Z</time>
      </trkpt>
      <trkpt lat="43.06319" lon="-0.55693">
        <ele>1398.85546875</ele>
        <time>2016-05-05T08:28:49Z</time>
      </trkpt>
      <trkpt lat="43.06306" lon="-0.55699">
        <ele>1398.85546875</ele>
        <time>2016-05-05T08:29:05Z</time>
      </trkpt>
      <trkpt lat="43.06294" lon="-0.55697">
        <ele>1401.2587890625</ele>
        <time>2016-05-05T08:29:20Z</time>
      </trkpt>
      <trkpt lat="43.06287" lon="-0.55695">
        <ele>1403.1813964844</ele>
        <time>2016-05-05T08:29:36Z</time>
      </trkpt>
      <trkpt lat="43.06284" lon="-0.55696">
        <ele>1405.5849609375</ele>
        <time>2016-05-05T08:29:45Z</time>
      </trkpt>
      <trkpt lat="43.06278" lon="-0.55697">
        <ele>1407.5075683594</ele>
        <time>2016-05-05T08:29:59Z</time>
      </trkpt>
      <trkpt lat="43.06269" lon="-0.55697">
        <ele>1408.9494628906</ele>
        <time>2016-05-05T08:30:15Z</time>
      </trkpt>
      <trkpt lat="43.06264" lon="-0.55704">
        <ele>1409.9106445312</ele>
        <time>2016-05-05T08:30:28Z</time>
      </trkpt>
      <trkpt lat="43.06256" lon="-0.55711">
        <ele>1411.3527832031</ele>
        <time>2016-05-05T08:30:43Z</time>
      </trkpt>
      <trkpt lat="43.0625" lon="-0.55714">
        <ele>1413.755859375</ele>
        <time>2016-05-05T08:31:02Z</time>
      </trkpt>
      <trkpt lat="43.06248" lon="-0.55726">
        <ele>1416.6398925781</ele>
        <time>2016-05-05T08:31:31Z</time>
      </trkpt>
      <trkpt lat="43.0625" lon="-0.5574">
        <ele>1420.4853515625</ele>
        <time>2016-05-05T08:31:49Z</time>
      </trkpt>
      <trkpt lat="43.0625" lon="-0.55741">
        <ele>1420.4853515625</ele>
        <time>2016-05-05T08:31:50Z</time>
      </trkpt>
      <trkpt lat="43.0625" lon="-0.55759">
        <ele>1422.4079589844</ele>
        <time>2016-05-05T08:32:10Z</time>
      </trkpt>
      <trkpt lat="43.06252" lon="-0.55776">
        <ele>1423.8498535156</ele>
        <time>2016-05-05T08:32:28Z</time>
      </trkpt>
      <trkpt lat="43.0625" lon="-0.55796">
        <ele>1427.2145996094</ele>
        <time>2016-05-05T08:32:48Z</time>
      </trkpt>
      <trkpt lat="43.06247" lon="-0.55814">
        <ele>1430.0983886719</ele>
        <time>2016-05-05T08:33:07Z</time>
      </trkpt>
      <trkpt lat="43.06247" lon="-0.55825">
        <ele>1431.5402832031</ele>
        <time>2016-05-05T08:33:26Z</time>
      </trkpt>
      <trkpt lat="43.06242" lon="-0.55843">
        <ele>1434.4243164062</ele>
        <time>2016-05-05T08:33:44Z</time>
      </trkpt>
      <trkpt lat="43.0624" lon="-0.55859">
        <ele>1435.8662109375</ele>
        <time>2016-05-05T08:34:00Z</time>
      </trkpt>
      <trkpt lat="43.06243" lon="-0.55874">
        <ele>1438.2697753906</ele>
        <time>2016-05-05T08:34:17Z</time>
      </trkpt>
      <trkpt lat="43.0625" lon="-0.55881">
        <ele>1440.1923828125</ele>
        <time>2016-05-05T08:34:38Z</time>
      </trkpt>
      <trkpt lat="43.06259" lon="-0.55887">
        <ele>1442.1149902344</ele>
        <time>2016-05-05T08:34:53Z</time>
      </trkpt>
      <trkpt lat="43.06268" lon="-0.55893">
        <ele>1444.0375976562</ele>
        <time>2016-05-05T08:35:10Z</time>
      </trkpt>
      <trkpt lat="43.06274" lon="-0.55894">
        <ele>1446.9213867188</ele>
        <time>2016-05-05T08:35:23Z</time>
      </trkpt>
      <trkpt lat="43.06277" lon="-0.55897">
        <ele>1446.9213867188</ele>
        <time>2016-05-05T08:35:43Z</time>
      </trkpt>
      <trkpt lat="43.0628" lon="-0.55907">
        <ele>1450.2861328125</ele>
        <time>2016-05-05T08:36:01Z</time>
      </trkpt>
      <trkpt lat="43.06279" lon="-0.55914">
        <ele>1452.2087402344</ele>
        <time>2016-05-05T08:36:19Z</time>
      </trkpt>
      <trkpt lat="43.06276" lon="-0.55925">
        <ele>1454.6120605469</ele>
        <time>2016-05-05T08:36:37Z</time>
      </trkpt>
      <trkpt lat="43.0627" lon="-0.55935">
        <ele>1457.0153808594</ele>
        <time>2016-05-05T08:36:55Z</time>
      </trkpt>
      <trkpt lat="43.06265" lon="-0.55943">
        <ele>1459.8991699219</ele>
        <time>2016-05-05T08:37:13Z</time>
      </trkpt>
      <trkpt lat="43.06258" lon="-0.55946">
        <ele>1461.8220214844</ele>
        <time>2016-05-05T08:37:28Z</time>
      </trkpt>
      <trkpt lat="43.06251" lon="-0.55948">
        <ele>1463.7443847656</ele>
        <time>2016-05-05T08:37:45Z</time>
      </trkpt>
      <trkpt lat="43.06247" lon="-0.55953">
        <ele>1466.6284179688</ele>
        <time>2016-05-05T08:38:02Z</time>
      </trkpt>
      <trkpt lat="43.06242" lon="-0.55958">
        <ele>1467.5895996094</ele>
        <time>2016-05-05T08:38:18Z</time>
      </trkpt>
      <trkpt lat="43.06237" lon="-0.55962">
        <ele>1469.5126953125</ele>
        <time>2016-05-05T08:38:32Z</time>
      </trkpt>
      <trkpt lat="43.06233" lon="-0.55968">
        <ele>1470.4738769531</ele>
        <time>2016-05-05T08:38:46Z</time>
      </trkpt>
      <trkpt lat="43.06227" lon="-0.55974">
        <ele>1473.8383789062</ele>
        <time>2016-05-05T08:39:03Z</time>
      </trkpt>
      <trkpt lat="43.06225" lon="-0.55979">
        <ele>1475.7609863281</ele>
        <time>2016-05-05T08:39:19Z</time>
      </trkpt>
      <trkpt lat="43.06222" lon="-0.55985">
        <ele>1478.1643066406</ele>
        <time>2016-05-05T08:39:34Z</time>
      </trkpt>
      <trkpt lat="43.06218" lon="-0.55986">
        <ele>1479.6062011719</ele>
        <time>2016-05-05T08:39:48Z</time>
      </trkpt>
      <trkpt lat="43.06216" lon="-0.55985">
        <ele>1479.6062011719</ele>
        <time>2016-05-05T08:40:06Z</time>
      </trkpt>
      <trkpt lat="43.06211" lon="-0.55984">
        <ele>1479.1254882812</ele>
        <time>2016-05-05T08:40:58Z</time>
      </trkpt>
      <trkpt lat="43.06213" lon="-0.55986">
        <ele>1478.1643066406</ele>
        <time>2016-05-05T08:42:10Z</time>
      </trkpt>
      <trkpt lat="43.06215" lon="-0.55991">
        <ele>1480.5676269531</ele>
        <time>2016-05-05T08:44:49Z</time>
      </trkpt>
      <trkpt lat="43.06213" lon="-0.55994">
        <ele>1481.5288085938</ele>
        <time>2016-05-05T08:45:10Z</time>
      </trkpt>
      <trkpt lat="43.06209" lon="-0.55999">
        <ele>1482.490234375</ele>
        <time>2016-05-05T08:45:23Z</time>
      </trkpt>
      <trkpt lat="43.06203" lon="-0.56004">
        <ele>1483.9321289062</ele>
        <time>2016-05-05T08:45:37Z</time>
      </trkpt>
      <trkpt lat="43.06196" lon="-0.5601">
        <ele>1485.3742675781</ele>
        <time>2016-05-05T08:45:51Z</time>
      </trkpt>
      <trkpt lat="43.06193" lon="-0.5602">
        <ele>1489.7001953125</ele>
        <time>2016-05-05T08:46:06Z</time>
      </trkpt>
      <trkpt lat="43.06193" lon="-0.56021">
        <ele>1489.7001953125</ele>
        <time>2016-05-05T08:46:07Z</time>
      </trkpt>
      <trkpt lat="43.06193" lon="-0.56029">
        <ele>1490.1809082031</ele>
        <time>2016-05-05T08:46:24Z</time>
      </trkpt>
      <trkpt lat="43.06196" lon="-0.56035">
        <ele>1492.5842285156</ele>
        <time>2016-05-05T08:46:38Z</time>
      </trkpt>
      <trkpt lat="43.06201" lon="-0.5604">
        <ele>1494.5065917969</ele>
        <time>2016-05-05T08:46:57Z</time>
      </trkpt>
      <trkpt lat="43.06199" lon="-0.56049">
        <ele>1496.9099121094</ele>
        <time>2016-05-05T08:47:19Z</time>
      </trkpt>
      <trkpt lat="43.06196" lon="-0.56057">
        <ele>1499.7939453125</ele>
        <time>2016-05-05T08:47:37Z</time>
      </trkpt>
      <trkpt lat="43.06192" lon="-0.56069">
        <ele>1502.197265625</ele>
        <time>2016-05-05T08:47:58Z</time>
      </trkpt>
      <trkpt lat="43.0619" lon="-0.56075">
        <ele>1504.6005859375</ele>
        <time>2016-05-05T08:48:21Z</time>
      </trkpt>
      <trkpt lat="43.06188" lon="-0.56084">
        <ele>1507.4846191406</ele>
        <time>2016-05-05T08:48:39Z</time>
      </trkpt>
      <trkpt lat="43.06187" lon="-0.56088">
        <ele>1508.4458007812</ele>
        <time>2016-05-05T08:48:56Z</time>
      </trkpt>
      <trkpt lat="43.06184" lon="-0.56093">
        <ele>1512.291015625</ele>
        <time>2016-05-05T08:49:09Z</time>
      </trkpt>
      <trkpt lat="43.06183" lon="-0.56096">
        <ele>1513.2524414062</ele>
        <time>2016-05-05T08:49:15Z</time>
      </trkpt>
      <trkpt lat="43.0618" lon="-0.56101">
        <ele>1516.1364746094</ele>
        <time>2016-05-05T08:49:33Z</time>
      </trkpt>
      <trkpt lat="43.06177" lon="-0.56106">
        <ele>1517.0979003906</ele>
        <time>2016-05-05T08:49:50Z</time>
      </trkpt>
      <trkpt lat="43.06178" lon="-0.56113">
        <ele>1518.5397949219</ele>
        <time>2016-05-05T08:50:06Z</time>
      </trkpt>
      <trkpt lat="43.0618" lon="-0.56117">
        <ele>1521.904296875</ele>
        <time>2016-05-05T08:50:13Z</time>
      </trkpt>
      <trkpt lat="43.06185" lon="-0.56121">
        <ele>1524.3076171875</ele>
        <time>2016-05-05T08:50:32Z</time>
      </trkpt>
      <trkpt lat="43.0619" lon="-0.56123">
        <ele>1527.1916503906</ele>
        <time>2016-05-05T08:50:46Z</time>
      </trkpt>
      <trkpt lat="43.0619" lon="-0.56123">
        <ele>1526.2302246094</ele>
        <time>2016-05-05T08:50:47Z</time>
      </trkpt>
      <trkpt lat="43.06198" lon="-0.56127">
        <ele>1529.1140136719</ele>
        <time>2016-05-05T08:51:05Z</time>
      </trkpt>
      <trkpt lat="43.06206" lon="-0.56128">
        <ele>1531.0368652344</ele>
        <time>2016-05-05T08:51:24Z</time>
      </trkpt>
      <trkpt lat="43.06207" lon="-0.56132">
        <ele>1532.9594726562</ele>
        <time>2016-05-05T08:51:41Z</time>
      </trkpt>
      <trkpt lat="43.06207" lon="-0.56135">
        <ele>1534.4016113281</ele>
        <time>2016-05-05T08:52:05Z</time>
      </trkpt>
      <trkpt lat="43.06213" lon="-0.56135">
        <ele>1537.2854003906</ele>
        <time>2016-05-05T08:52:17Z</time>
      </trkpt>
      <trkpt lat="43.06217" lon="-0.56139">
        <ele>1537.7661132812</ele>
        <time>2016-05-05T08:52:34Z</time>
      </trkpt>
      <trkpt lat="43.06226" lon="-0.56141">
        <ele>1537.7661132812</ele>
        <time>2016-05-05T08:52:59Z</time>
      </trkpt>
      <trkpt lat="43.06237" lon="-0.56145">
        <ele>1538.2468261719</ele>
        <time>2016-05-05T08:53:13Z</time>
      </trkpt>
      <trkpt lat="43.06237" lon="-0.56145">
        <ele>1538.2468261719</ele>
        <time>2016-05-05T08:53:21Z</time>
      </trkpt>
      <trkpt lat="43.06241" lon="-0.56145">
        <ele>1539.2080078125</ele>
        <time>2016-05-05T08:53:42Z</time>
      </trkpt>
      <trkpt lat="43.06251" lon="-0.56151">
        <ele>1539.2080078125</ele>
        <time>2016-05-05T08:53:56Z</time>
      </trkpt>
      <trkpt lat="43.06262" lon="-0.56156">
        <ele>1539.6887207031</ele>
        <time>2016-05-05T08:54:11Z</time>
      </trkpt>
      <trkpt lat="43.06275" lon="-0.56162">
        <ele>1541.1306152344</ele>
        <time>2016-05-05T08:54:28Z</time>
      </trkpt>
      <trkpt lat="43.06285" lon="-0.56164">
        <ele>1544.0146484375</ele>
        <time>2016-05-05T08:54:42Z</time>
      </trkpt>
      <trkpt lat="43.06293" lon="-0.56163">
        <ele>1544.9758300781</ele>
        <time>2016-05-05T08:55:15Z</time>
      </trkpt>
      <trkpt lat="43.06299" lon="-0.56168">
        <ele>1546.41796875</ele>
        <time>2016-05-05T08:55:31Z</time>
      </trkpt>
      <trkpt lat="43.06302" lon="-0.56171">
        <ele>1547.8598632812</ele>
        <time>2016-05-05T08:55:39Z</time>
      </trkpt>
      <trkpt lat="43.06309" lon="-0.56177">
        <ele>1549.3020019531</ele>
        <time>2016-05-05T08:56:03Z</time>
      </trkpt>
      <trkpt lat="43.06319" lon="-0.56181">
        <ele>1552.1857910156</ele>
        <time>2016-05-05T08:56:23Z</time>
      </trkpt>
      <trkpt lat="43.06328" lon="-0.56184">
        <ele>1555.0698242188</ele>
        <time>2016-05-05T08:56:37Z</time>
      </trkpt>
      <trkpt lat="43.06329" lon="-0.56184">
        <ele>1555.5505371094</ele>
        <time>2016-05-05T08:56:56Z</time>
      </trkpt>
      <trkpt lat="43.06336" lon="-0.5618">
        <ele>1557.9538574219</ele>
        <time>2016-05-05T08:57:22Z</time>
      </trkpt>
      <trkpt lat="43.06343" lon="-0.56175">
        <ele>1560.8376464844</ele>
        <time>2016-05-05T08:57:40Z</time>
      </trkpt>
      <trkpt lat="43.06349" lon="-0.56187">
        <ele>1563.2409667969</ele>
        <time>2016-05-05T08:57:58Z</time>
      </trkpt>
      <trkpt lat="43.06354" lon="-0.56192">
        <ele>1565.64453125</ele>
        <time>2016-05-05T08:58:20Z</time>
      </trkpt>
      <trkpt lat="43.06358" lon="-0.56201">
        <ele>1568.5283203125</ele>
        <time>2016-05-05T08:58:33Z</time>
      </trkpt>
      <trkpt lat="43.06364" lon="-0.56213">
        <ele>1571.412109375</ele>
        <time>2016-05-05T08:58:53Z</time>
      </trkpt>
      <trkpt lat="43.0637" lon="-0.56212">
        <ele>1574.2961425781</ele>
        <time>2016-05-05T08:59:06Z</time>
      </trkpt>
      <trkpt lat="43.06378" lon="-0.56214">
        <ele>1576.6994628906</ele>
        <time>2016-05-05T08:59:34Z</time>
      </trkpt>
      <trkpt lat="43.06382" lon="-0.56216">
        <ele>1578.1413574219</ele>
        <time>2016-05-05T08:59:59Z</time>
      </trkpt>
      <trkpt lat="43.06387" lon="-0.56214">
        <ele>1581.0256347656</ele>
        <time>2016-05-05T09:00:14Z</time>
      </trkpt>
      <trkpt lat="43.06389" lon="-0.56213">
        <ele>1582.9479980469</ele>
        <time>2016-05-05T09:00:24Z</time>
      </trkpt>
      <trkpt lat="43.06393" lon="-0.56211">
        <ele>1586.3127441406</ele>
        <time>2016-05-05T09:00:39Z</time>
      </trkpt>
      <trkpt lat="43.06397" lon="-0.5621">
        <ele>1587.2739257812</ele>
        <time>2016-05-05T09:01:04Z</time>
      </trkpt>
      <trkpt lat="43.06403" lon="-0.56208">
        <ele>1588.7160644531</ele>
        <time>2016-05-05T09:01:20Z</time>
      </trkpt>
      <trkpt lat="43.06407" lon="-0.56203">
        <ele>1591.119140625</ele>
        <time>2016-05-05T09:01:37Z</time>
      </trkpt>
      <trkpt lat="43.06413" lon="-0.56208">
        <ele>1593.0417480469</ele>
        <time>2016-05-05T09:01:55Z</time>
      </trkpt>
      <trkpt lat="43.06418" lon="-0.56209">
        <ele>1594.9643554688</ele>
        <time>2016-05-05T09:02:16Z</time>
      </trkpt>
      <trkpt lat="43.06423" lon="-0.56206">
        <ele>1598.3291015625</ele>
        <time>2016-05-05T09:02:28Z</time>
      </trkpt>
      <trkpt lat="43.06424" lon="-0.56206">
        <ele>1598.3291015625</ele>
        <time>2016-05-05T09:02:29Z</time>
      </trkpt>
      <trkpt lat="43.06426" lon="-0.56205">
        <ele>1598.8098144531</ele>
        <time>2016-05-05T09:02:55Z</time>
      </trkpt>
      <trkpt lat="43.06428" lon="-0.56209">
        <ele>1600.732421875</ele>
        <time>2016-05-05T09:03:14Z</time>
      </trkpt>
      <trkpt lat="43.0643" lon="-0.5621">
        <ele>1602.1743164062</ele>
        <time>2016-05-05T09:03:36Z</time>
      </trkpt>
      <trkpt lat="43.06435" lon="-0.56215">
        <ele>1604.5776367188</ele>
        <time>2016-05-05T09:03:54Z</time>
      </trkpt>
      <trkpt lat="43.06438" lon="-0.56218">
        <ele>1607.9423828125</ele>
        <time>2016-05-05T09:04:04Z</time>
      </trkpt>
      <trkpt lat="43.06442" lon="-0.56222">
        <ele>1609.8647460938</ele>
        <time>2016-05-05T09:04:25Z</time>
      </trkpt>
      <trkpt lat="43.06447" lon="-0.56219">
        <ele>1611.3068847656</ele>
        <time>2016-05-05T09:04:43Z</time>
      </trkpt>
      <trkpt lat="43.06451" lon="-0.56223">
        <ele>1614.1909179688</ele>
        <time>2016-05-05T09:05:00Z</time>
      </trkpt>
      <trkpt lat="43.06456" lon="-0.56223">
        <ele>1617.0749511719</ele>
        <time>2016-05-05T09:05:15Z</time>
      </trkpt>
      <trkpt lat="43.0646" lon="-0.56222">
        <ele>1618.9975585938</ele>
        <time>2016-05-05T09:05:51Z</time>
      </trkpt>
      <trkpt lat="43.06462" lon="-0.56225">
        <ele>1622.3620605469</ele>
        <time>2016-05-05T09:06:01Z</time>
      </trkpt>
      <trkpt lat="43.06463" lon="-0.56225">
        <ele>1622.3620605469</ele>
        <time>2016-05-05T09:06:02Z</time>
      </trkpt>
      <trkpt lat="43.06465" lon="-0.56227">
        <ele>1623.3234863281</ele>
        <time>2016-05-05T09:06:08Z</time>
      </trkpt>
      <trkpt lat="43.06468" lon="-0.56221">
        <ele>1626.6879882812</ele>
        <time>2016-05-05T09:06:26Z</time>
      </trkpt>
      <trkpt lat="43.06471" lon="-0.56212">
        <ele>1627.1687011719</ele>
        <time>2016-05-05T09:06:41Z</time>
      </trkpt>
      <trkpt lat="43.06475" lon="-0.56212">
        <ele>1628.1301269531</ele>
        <time>2016-05-05T09:06:59Z</time>
      </trkpt>
      <trkpt lat="43.0648" lon="-0.56215">
        <ele>1631.0141601562</ele>
        <time>2016-05-05T09:07:16Z</time>
      </trkpt>
      <trkpt lat="43.06482" lon="-0.56217">
        <ele>1633.4172363281</ele>
        <time>2016-05-05T09:07:38Z</time>
      </trkpt>
      <trkpt lat="43.06486" lon="-0.56214">
        <ele>1634.3786621094</ele>
        <time>2016-05-05T09:07:52Z</time>
      </trkpt>
      <trkpt lat="43.06488" lon="-0.56217">
        <ele>1636.7817382812</ele>
        <time>2016-05-05T09:08:13Z</time>
      </trkpt>
      <trkpt lat="43.06492" lon="-0.56221">
        <ele>1639.1850585938</ele>
        <time>2016-05-05T09:08:28Z</time>
      </trkpt>
      <trkpt lat="43.06495" lon="-0.56224">
        <ele>1642.0690917969</ele>
        <time>2016-05-05T09:08:35Z</time>
      </trkpt>
      <trkpt lat="43.06498" lon="-0.56226">
        <ele>1643.9916992188</ele>
        <time>2016-05-05T09:08:54Z</time>
      </trkpt>
      <trkpt lat="43.065" lon="-0.56228">
        <ele>1644.953125</ele>
        <time>2016-05-05T09:09:09Z</time>
      </trkpt>
      <trkpt lat="43.06504" lon="-0.56226">
        <ele>1644.953125</ele>
        <time>2016-05-05T09:09:24Z</time>
      </trkpt>
      <trkpt lat="43.06504" lon="-0.56225">
        <ele>1645.4338378906</ele>
        <time>2016-05-05T09:10:07Z</time>
      </trkpt>
      <trkpt lat="43.06504" lon="-0.56226">
        <ele>1645.4338378906</ele>
        <time>2016-05-05T09:10:50Z</time>
      </trkpt>
      <trkpt lat="43.06503" lon="-0.56225">
        <ele>1644.953125</ele>
        <time>2016-05-05T09:11:05Z</time>
      </trkpt>
      <trkpt lat="43.06503" lon="-0.56225">
        <ele>1645.4338378906</ele>
        <time>2016-05-05T09:11:24Z</time>
      </trkpt>
      <trkpt lat="43.06505" lon="-0.56225">
        <ele>1644.953125</ele>
        <time>2016-05-05T09:11:44Z</time>
      </trkpt>
      <trkpt lat="43.06504" lon="-0.56227">
        <ele>1645.4338378906</ele>
        <time>2016-05-05T09:18:11Z</time>
      </trkpt>
      <trkpt lat="43.06505" lon="-0.56226">
        <ele>1646.3952636719</ele>
        <time>2016-05-05T09:19:24Z</time>
      </trkpt>
      <trkpt lat="43.06506" lon="-0.56224">
        <ele>1645.9145507812</ele>
        <time>2016-05-05T09:23:05Z</time>
      </trkpt>
      <trkpt lat="43.06505" lon="-0.56227">
        <ele>1646.3952636719</ele>
        <time>2016-05-05T09:25:28Z</time>
      </trkpt>
      <trkpt lat="43.06504" lon="-0.56226">
        <ele>1646.8757324219</ele>
        <time>2016-05-05T09:25:56Z</time>
      </trkpt>
      <trkpt lat="43.06504" lon="-0.56225">
        <ele>1648.3176269531</ele>
        <time>2016-05-05T09:26:17Z</time>
      </trkpt>
      <trkpt lat="43.065" lon="-0.56225">
        <ele>1645.4338378906</ele>
        <time>2016-05-05T09:26:32Z</time>
      </trkpt>
      <trkpt lat="43.06496" lon="-0.56224">
        <ele>1643.5109863281</ele>
        <time>2016-05-05T09:26:47Z</time>
      </trkpt>
      <trkpt lat="43.06494" lon="-0.56221">
        <ele>1642.0690917969</ele>
        <time>2016-05-05T09:27:03Z</time>
      </trkpt>
      <trkpt lat="43.0649" lon="-0.56217">
        <ele>1640.626953125</ele>
        <time>2016-05-05T09:27:21Z</time>
      </trkpt>
      <trkpt lat="43.06486" lon="-0.5622">
        <ele>1637.7431640625</ele>
        <time>2016-05-05T09:27:36Z</time>
      </trkpt>
      <trkpt lat="43.06483" lon="-0.56215">
        <ele>1634.859375</ele>
        <time>2016-05-05T09:27:53Z</time>
      </trkpt>
      <trkpt lat="43.06478" lon="-0.56217">
        <ele>1631.9753417969</ele>
        <time>2016-05-05T09:28:05Z</time>
      </trkpt>
      <trkpt lat="43.06473" lon="-0.56218">
        <ele>1629.5720214844</ele>
        <time>2016-05-05T09:28:18Z</time>
      </trkpt>
      <trkpt lat="43.06469" lon="-0.56221">
        <ele>1626.2072753906</ele>
        <time>2016-05-05T09:28:30Z</time>
      </trkpt>
      <trkpt lat="43.06465" lon="-0.56225">
        <ele>1624.2846679688</ele>
        <time>2016-05-05T09:28:45Z</time>
      </trkpt>
      <trkpt lat="43.06462" lon="-0.56224">
        <ele>1621.4006347656</ele>
        <time>2016-05-05T09:28:53Z</time>
      </trkpt>
      <trkpt lat="43.06458" lon="-0.56222">
        <ele>1619.9587402344</ele>
        <time>2016-05-05T09:29:09Z</time>
      </trkpt>
      <trkpt lat="43.06455" lon="-0.56222">
        <ele>1616.5942382812</ele>
        <time>2016-05-05T09:29:19Z</time>
      </trkpt>
      <trkpt lat="43.06451" lon="-0.56218">
        <ele>1615.6330566406</ele>
        <time>2016-05-05T09:29:33Z</time>
      </trkpt>
      <trkpt lat="43.06447" lon="-0.56217">
        <ele>1612.2683105469</ele>
        <time>2016-05-05T09:29:45Z</time>
      </trkpt>
      <trkpt lat="43.06447" lon="-0.56218">
        <ele>1612.2683105469</ele>
        <time>2016-05-05T09:29:46Z</time>
      </trkpt>
      <trkpt lat="43.06441" lon="-0.56217">
        <ele>1609.3842773438</ele>
        <time>2016-05-05T09:30:03Z</time>
      </trkpt>
      <trkpt lat="43.06434" lon="-0.56212">
        <ele>1606.5002441406</ele>
        <time>2016-05-05T09:30:19Z</time>
      </trkpt>
      <trkpt lat="43.06429" lon="-0.56212">
        <ele>1603.6164550781</ele>
        <time>2016-05-05T09:30:30Z</time>
      </trkpt>
      <trkpt lat="43.06428" lon="-0.56213">
        <ele>1603.6164550781</ele>
        <time>2016-05-05T09:30:31Z</time>
      </trkpt>
      <trkpt lat="43.06422" lon="-0.56216">
        <ele>1599.7712402344</ele>
        <time>2016-05-05T09:30:41Z</time>
      </trkpt>
      <trkpt lat="43.06421" lon="-0.56216">
        <ele>1599.7712402344</ele>
        <time>2016-05-05T09:30:42Z</time>
      </trkpt>
      <trkpt lat="43.06417" lon="-0.56211">
        <ele>1598.3291015625</ele>
        <time>2016-05-05T09:30:56Z</time>
      </trkpt>
      <trkpt lat="43.06417" lon="-0.5621">
        <ele>1598.8098144531</ele>
        <time>2016-05-05T09:32:07Z</time>
      </trkpt>
      <trkpt lat="43.06416" lon="-0.56209">
        <ele>1596.8872070312</ele>
        <time>2016-05-05T09:32:36Z</time>
      </trkpt>
      <trkpt lat="43.06415" lon="-0.5621">
        <ele>1597.3679199219</ele>
        <time>2016-05-05T09:33:32Z</time>
      </trkpt>
      <trkpt lat="43.06416" lon="-0.5621">
        <ele>1596.8872070312</ele>
        <time>2016-05-05T09:34:18Z</time>
      </trkpt>
      <trkpt lat="43.06416" lon="-0.56209">
        <ele>1594.0031738281</ele>
        <time>2016-05-05T09:34:20Z</time>
      </trkpt>
      <trkpt lat="43.06416" lon="-0.56209">
        <ele>1599.7712402344</ele>
        <time>2016-05-05T09:34:21Z</time>
      </trkpt>
      <trkpt lat="43.06415" lon="-0.56208">
        <ele>1596.4067382812</ele>
        <time>2016-05-05T09:34:26Z</time>
      </trkpt>
      <trkpt lat="43.06409" lon="-0.56203">
        <ele>1594.9643554688</ele>
        <time>2016-05-05T09:34:41Z</time>
      </trkpt>
      <trkpt lat="43.064" lon="-0.56208">
        <ele>1592.5612792969</ele>
        <time>2016-05-05T09:34:58Z</time>
      </trkpt>
      <trkpt lat="43.06396" lon="-0.5621">
        <ele>1590.1579589844</ele>
        <time>2016-05-05T09:35:13Z</time>
      </trkpt>
      <trkpt lat="43.06392" lon="-0.56212">
        <ele>1587.2739257812</ele>
        <time>2016-05-05T09:35:26Z</time>
      </trkpt>
      <trkpt lat="43.06387" lon="-0.56213">
        <ele>1584.3901367188</ele>
        <time>2016-05-05T09:35:37Z</time>
      </trkpt>
      <trkpt lat="43.0638" lon="-0.56213">
        <ele>1581.0256347656</ele>
        <time>2016-05-05T09:35:51Z</time>
      </trkpt>
      <trkpt lat="43.06372" lon="-0.56212">
        <ele>1577.6606445312</ele>
        <time>2016-05-05T09:36:03Z</time>
      </trkpt>
      <trkpt lat="43.06365" lon="-0.56212">
        <ele>1574.7768554688</ele>
        <time>2016-05-05T09:36:14Z</time>
      </trkpt>
      <trkpt lat="43.0636" lon="-0.56204">
        <ele>1570.931640625</ele>
        <time>2016-05-05T09:36:24Z</time>
      </trkpt>
      <trkpt lat="43.06359" lon="-0.56204">
        <ele>1570.931640625</ele>
        <time>2016-05-05T09:36:25Z</time>
      </trkpt>
      <trkpt lat="43.06352" lon="-0.56206">
        <ele>1568.5283203125</ele>
        <time>2016-05-05T09:36:35Z</time>
      </trkpt>
      <trkpt lat="43.06342" lon="-0.56208">
        <ele>1565.1638183594</ele>
        <time>2016-05-05T09:36:48Z</time>
      </trkpt>
      <trkpt lat="43.06332" lon="-0.56212">
        <ele>1562.2795410156</ele>
        <time>2016-05-05T09:37:02Z</time>
      </trkpt>
      <trkpt lat="43.06324" lon="-0.56215">
        <ele>1559.3957519531</ele>
        <time>2016-05-05T09:37:14Z</time>
      </trkpt>
      <trkpt lat="43.06319" lon="-0.56218">
        <ele>1556.51171875</ele>
        <time>2016-05-05T09:37:22Z</time>
      </trkpt>
      <trkpt lat="43.06314" lon="-0.5622">
        <ele>1555.5505371094</ele>
        <time>2016-05-05T09:37:28Z</time>
      </trkpt>
      <trkpt lat="43.063" lon="-0.56225">
        <ele>1552.1857910156</ele>
        <time>2016-05-05T09:37:44Z</time>
      </trkpt>
      <trkpt lat="43.06299" lon="-0.56224">
        <ele>1551.7053222656</ele>
        <time>2016-05-05T09:37:46Z</time>
      </trkpt>
      <trkpt lat="43.06287" lon="-0.56221">
        <ele>1548.8212890625</ele>
        <time>2016-05-05T09:38:00Z</time>
      </trkpt>
      <trkpt lat="43.06273" lon="-0.56218">
        <ele>1545.4565429688</ele>
        <time>2016-05-05T09:38:14Z</time>
      </trkpt>
      <trkpt lat="43.0627" lon="-0.56218">
        <ele>1544.9758300781</ele>
        <time>2016-05-05T09:38:17Z</time>
      </trkpt>
      <trkpt lat="43.06257" lon="-0.56228">
        <ele>1544.4951171875</ele>
        <time>2016-05-05T09:38:33Z</time>
      </trkpt>
      <trkpt lat="43.06254" lon="-0.56229">
        <ele>1543.0532226562</ele>
        <time>2016-05-05T09:38:37Z</time>
      </trkpt>
      <trkpt lat="43.06247" lon="-0.56231">
        <ele>1541.1306152344</ele>
        <time>2016-05-05T09:38:44Z</time>
      </trkpt>
      <trkpt lat="43.06244" lon="-0.56231">
        <ele>1541.1306152344</ele>
        <time>2016-05-05T09:38:47Z</time>
      </trkpt>
      <trkpt lat="43.06241" lon="-0.56232">
        <ele>1541.611328125</ele>
        <time>2016-05-05T09:38:50Z</time>
      </trkpt>
      <trkpt lat="43.06224" lon="-0.56239">
        <ele>1541.611328125</ele>
        <time>2016-05-05T09:39:09Z</time>
      </trkpt>
      <trkpt lat="43.06217" lon="-0.56231">
        <ele>1543.0532226562</ele>
        <time>2016-05-05T09:39:20Z</time>
      </trkpt>
      <trkpt lat="43.06216" lon="-0.56226">
        <ele>1543.0532226562</ele>
        <time>2016-05-05T09:39:23Z</time>
      </trkpt>
      <trkpt lat="43.06207" lon="-0.56202">
        <ele>1544.9758300781</ele>
        <time>2016-05-05T09:39:43Z</time>
      </trkpt>
      <trkpt lat="43.062" lon="-0.56184">
        <ele>1546.41796875</ele>
        <time>2016-05-05T09:39:59Z</time>
      </trkpt>
      <trkpt lat="43.06195" lon="-0.56172">
        <ele>1547.8598632812</ele>
        <time>2016-05-05T09:40:12Z</time>
      </trkpt>
      <trkpt lat="43.06188" lon="-0.56171">
        <ele>1549.3020019531</ele>
        <time>2016-05-05T09:40:26Z</time>
      </trkpt>
      <trkpt lat="43.06184" lon="-0.56166">
        <ele>1550.7438964844</ele>
        <time>2016-05-05T09:40:45Z</time>
      </trkpt>
      <trkpt lat="43.06179" lon="-0.56163">
        <ele>1552.6665039062</ele>
        <time>2016-05-05T09:40:58Z</time>
      </trkpt>
      <trkpt lat="43.06176" lon="-0.56163">
        <ele>1555.0698242188</ele>
        <time>2016-05-05T09:41:13Z</time>
      </trkpt>
      <trkpt lat="43.06173" lon="-0.56166">
        <ele>1556.51171875</ele>
        <time>2016-05-05T09:41:29Z</time>
      </trkpt>
      <trkpt lat="43.06168" lon="-0.56168">
        <ele>1557.9538574219</ele>
        <time>2016-05-05T09:41:46Z</time>
      </trkpt>
      <trkpt lat="43.06165" lon="-0.5617">
        <ele>1559.3957519531</ele>
        <time>2016-05-05T09:42:04Z</time>
      </trkpt>
      <trkpt lat="43.06163" lon="-0.5617">
        <ele>1560.3569335938</ele>
        <time>2016-05-05T09:42:20Z</time>
      </trkpt>
      <trkpt lat="43.0616" lon="-0.56171">
        <ele>1562.2795410156</ele>
        <time>2016-05-05T09:42:38Z</time>
      </trkpt>
      <trkpt lat="43.06158" lon="-0.56171">
        <ele>1564.2023925781</ele>
        <time>2016-05-05T09:42:56Z</time>
      </trkpt>
      <trkpt lat="43.06154" lon="-0.56173">
        <ele>1566.125</ele>
        <time>2016-05-05T09:43:12Z</time>
      </trkpt>
      <trkpt lat="43.06151" lon="-0.56178">
        <ele>1567.0864257812</ele>
        <time>2016-05-05T09:43:27Z</time>
      </trkpt>
      <trkpt lat="43.06148" lon="-0.56186">
        <ele>1568.0476074219</ele>
        <time>2016-05-05T09:43:45Z</time>
      </trkpt>
      <trkpt lat="43.06145" lon="-0.56192">
        <ele>1569.4897460938</ele>
        <time>2016-05-05T09:44:00Z</time>
      </trkpt>
      <trkpt lat="43.0614" lon="-0.56197">
        <ele>1570.931640625</ele>
        <time>2016-05-05T09:44:15Z</time>
      </trkpt>
      <trkpt lat="43.06137" lon="-0.56199">
        <ele>1572.8542480469</ele>
        <time>2016-05-05T09:44:37Z</time>
      </trkpt>
      <trkpt lat="43.06136" lon="-0.562">
        <ele>1572.8542480469</ele>
        <time>2016-05-05T09:44:38Z</time>
      </trkpt>
      <trkpt lat="43.06128" lon="-0.56206">
        <ele>1573.3349609375</ele>
        <time>2016-05-05T09:44:58Z</time>
      </trkpt>
      <trkpt lat="43.06123" lon="-0.56207">
        <ele>1576.6994628906</ele>
        <time>2016-05-05T09:45:13Z</time>
      </trkpt>
      <trkpt lat="43.06119" lon="-0.56206">
        <ele>1577.6606445312</ele>
        <time>2016-05-05T09:45:30Z</time>
      </trkpt>
      <trkpt lat="43.06116" lon="-0.56205">
        <ele>1579.5832519531</ele>
        <time>2016-05-05T09:45:46Z</time>
      </trkpt>
      <trkpt lat="43.06111" lon="-0.56199">
        <ele>1581.9868164062</ele>
        <time>2016-05-05T09:46:04Z</time>
      </trkpt>
      <trkpt lat="43.06108" lon="-0.56198">
        <ele>1583.4287109375</ele>
        <time>2016-05-05T09:46:21Z</time>
      </trkpt>
      <trkpt lat="43.06106" lon="-0.56197">
        <ele>1585.3513183594</ele>
        <time>2016-05-05T09:46:30Z</time>
      </trkpt>
      <trkpt lat="43.06101" lon="-0.56193">
        <ele>1587.2739257812</ele>
        <time>2016-05-05T09:46:48Z</time>
      </trkpt>
      <trkpt lat="43.06099" lon="-0.5619">
        <ele>1590.1579589844</ele>
        <time>2016-05-05T09:47:04Z</time>
      </trkpt>
      <trkpt lat="43.06096" lon="-0.56187">
        <ele>1590.1579589844</ele>
        <time>2016-05-05T09:47:32Z</time>
      </trkpt>
      <trkpt lat="43.06093" lon="-0.56188">
        <ele>1590.1579589844</ele>
        <time>2016-05-05T09:47:55Z</time>
      </trkpt>
      <trkpt lat="43.06089" lon="-0.5619">
        <ele>1590.1579589844</ele>
        <time>2016-05-05T09:48:11Z</time>
      </trkpt>
      <trkpt lat="43.0609" lon="-0.56191">
        <ele>1590.6384277344</ele>
        <time>2016-05-05T09:48:55Z</time>
      </trkpt>
      <trkpt lat="43.06094" lon="-0.5619">
        <ele>1590.1579589844</ele>
        <time>2016-05-05T09:49:10Z</time>
      </trkpt>
      <trkpt lat="43.06096" lon="-0.56188">
        <ele>1589.6772460938</ele>
        <time>2016-05-05T09:49:28Z</time>
      </trkpt>
      <trkpt lat="43.06096" lon="-0.56188">
        <ele>1588.7160644531</ele>
        <time>2016-05-05T09:49:30Z</time>
      </trkpt>
      <trkpt lat="43.06098" lon="-0.56191">
        <ele>1589.1965332031</ele>
        <time>2016-05-05T09:49:50Z</time>
      </trkpt>
      <trkpt lat="43.061" lon="-0.56192">
        <ele>1587.2739257812</ele>
        <time>2016-05-05T09:49:58Z</time>
      </trkpt>
      <trkpt lat="43.06105" lon="-0.56197">
        <ele>1585.83203125</ele>
        <time>2016-05-05T09:50:12Z</time>
      </trkpt>
      <trkpt lat="43.06109" lon="-0.56198">
        <ele>1584.3901367188</ele>
        <time>2016-05-05T09:50:24Z</time>
      </trkpt>
      <trkpt lat="43.06114" lon="-0.56202">
        <ele>1581.0256347656</ele>
        <time>2016-05-05T09:50:35Z</time>
      </trkpt>
      <trkpt lat="43.0612" lon="-0.56208">
        <ele>1578.1413574219</ele>
        <time>2016-05-05T09:50:49Z</time>
      </trkpt>
      <trkpt lat="43.06125" lon="-0.56206">
        <ele>1574.7768554688</ele>
        <time>2016-05-05T09:51:02Z</time>
      </trkpt>
      <trkpt lat="43.06132" lon="-0.56204">
        <ele>1572.3735351562</ele>
        <time>2016-05-05T09:51:18Z</time>
      </trkpt>
      <trkpt lat="43.06143" lon="-0.56201">
        <ele>1569.9702148438</ele>
        <time>2016-05-05T09:51:35Z</time>
      </trkpt>
      <trkpt lat="43.06151" lon="-0.56206">
        <ele>1568.0476074219</ele>
        <time>2016-05-05T09:51:51Z</time>
      </trkpt>
      <trkpt lat="43.06153" lon="-0.56206">
        <ele>1567.0864257812</ele>
        <time>2016-05-05T09:51:54Z</time>
      </trkpt>
      <trkpt lat="43.06163" lon="-0.56207">
        <ele>1564.6831054688</ele>
        <time>2016-05-05T09:52:10Z</time>
      </trkpt>
      <trkpt lat="43.06165" lon="-0.56213">
        <ele>1562.2795410156</ele>
        <time>2016-05-05T09:52:24Z</time>
      </trkpt>
      <trkpt lat="43.06175" lon="-0.56218">
        <ele>1560.8376464844</ele>
        <time>2016-05-05T09:52:39Z</time>
      </trkpt>
      <trkpt lat="43.06177" lon="-0.5622">
        <ele>1558.9150390625</ele>
        <time>2016-05-05T09:52:56Z</time>
      </trkpt>
      <trkpt lat="43.06179" lon="-0.56223">
        <ele>1556.0310058594</ele>
        <time>2016-05-05T09:53:11Z</time>
      </trkpt>
      <trkpt lat="43.06182" lon="-0.56226">
        <ele>1555.5505371094</ele>
        <time>2016-05-05T09:53:26Z</time>
      </trkpt>
      <trkpt lat="43.06186" lon="-0.56225">
        <ele>1553.1472167969</ele>
        <time>2016-05-05T09:53:40Z</time>
      </trkpt>
      <trkpt lat="43.06187" lon="-0.56223">
        <ele>1551.224609375</ele>
        <time>2016-05-05T09:53:46Z</time>
      </trkpt>
      <trkpt lat="43.06191" lon="-0.56219">
        <ele>1550.2634277344</ele>
        <time>2016-05-05T09:53:59Z</time>
      </trkpt>
      <trkpt lat="43.06194" lon="-0.5621">
        <ele>1548.8212890625</ele>
        <time>2016-05-05T09:54:13Z</time>
      </trkpt>
      <trkpt lat="43.06196" lon="-0.56206">
        <ele>1549.3020019531</ele>
        <time>2016-05-05T09:54:23Z</time>
      </trkpt>
      <trkpt lat="43.06204" lon="-0.56181">
        <ele>1546.41796875</ele>
        <time>2016-05-05T09:54:42Z</time>
      </trkpt>
      <trkpt lat="43.06205" lon="-0.56179">
        <ele>1546.41796875</ele>
        <time>2016-05-05T09:54:43Z</time>
      </trkpt>
      <trkpt lat="43.06205" lon="-0.56175">
        <ele>1546.8984375</ele>
        <time>2016-05-05T09:54:46Z</time>
      </trkpt>
      <trkpt lat="43.06206" lon="-0.56167">
        <ele>1546.8984375</ele>
        <time>2016-05-05T09:54:52Z</time>
      </trkpt>
      <trkpt lat="43.06206" lon="-0.56146">
        <ele>1544.9758300781</ele>
        <time>2016-05-05T09:55:11Z</time>
      </trkpt>
      <trkpt lat="43.06205" lon="-0.56141">
        <ele>1543.0532226562</ele>
        <time>2016-05-05T09:55:34Z</time>
      </trkpt>
      <trkpt lat="43.0621" lon="-0.56134">
        <ele>1541.611328125</ele>
        <time>2016-05-05T09:55:53Z</time>
      </trkpt>
      <trkpt lat="43.06212" lon="-0.56127">
        <ele>1538.7275390625</ele>
        <time>2016-05-05T09:56:10Z</time>
      </trkpt>
      <trkpt lat="43.06211" lon="-0.56121">
        <ele>1535.3627929688</ele>
        <time>2016-05-05T09:56:22Z</time>
      </trkpt>
      <trkpt lat="43.06204" lon="-0.5612">
        <ele>1532.4790039062</ele>
        <time>2016-05-05T09:56:36Z</time>
      </trkpt>
      <trkpt lat="43.062" lon="-0.56119">
        <ele>1530.0754394531</ele>
        <time>2016-05-05T09:56:44Z</time>
      </trkpt>
      <trkpt lat="43.06193" lon="-0.56116">
        <ele>1527.1916503906</ele>
        <time>2016-05-05T09:57:00Z</time>
      </trkpt>
      <trkpt lat="43.06187" lon="-0.56112">
        <ele>1525.2687988281</ele>
        <time>2016-05-05T09:57:18Z</time>
      </trkpt>
      <trkpt lat="43.06185" lon="-0.56105">
        <ele>1522.8657226562</ele>
        <time>2016-05-05T09:57:34Z</time>
      </trkpt>
      <trkpt lat="43.06187" lon="-0.561">
        <ele>1520.4624023438</ele>
        <time>2016-05-05T09:57:45Z</time>
      </trkpt>
      <trkpt lat="43.06188" lon="-0.56098">
        <ele>1518.5397949219</ele>
        <time>2016-05-05T09:57:49Z</time>
      </trkpt>
      <trkpt lat="43.06191" lon="-0.5609">
        <ele>1515.6557617188</ele>
        <time>2016-05-05T09:58:06Z</time>
      </trkpt>
      <trkpt lat="43.06194" lon="-0.56081">
        <ele>1512.291015625</ele>
        <time>2016-05-05T09:58:23Z</time>
      </trkpt>
      <trkpt lat="43.06195" lon="-0.56073">
        <ele>1509.4072265625</ele>
        <time>2016-05-05T09:58:40Z</time>
      </trkpt>
      <trkpt lat="43.062" lon="-0.56063">
        <ele>1506.0424804688</ele>
        <time>2016-05-05T09:58:54Z</time>
      </trkpt>
      <trkpt lat="43.06201" lon="-0.56052">
        <ele>1502.6779785156</ele>
        <time>2016-05-05T09:59:08Z</time>
      </trkpt>
      <trkpt lat="43.06206" lon="-0.5604">
        <ele>1499.7939453125</ele>
        <time>2016-05-05T09:59:26Z</time>
      </trkpt>
      <trkpt lat="43.06206" lon="-0.56038">
        <ele>1498.3518066406</ele>
        <time>2016-05-05T09:59:28Z</time>
      </trkpt>
      <trkpt lat="43.06206" lon="-0.56024">
        <ele>1494.9873046875</ele>
        <time>2016-05-05T09:59:42Z</time>
      </trkpt>
      <trkpt lat="43.06209" lon="-0.56009">
        <ele>1491.6228027344</ele>
        <time>2016-05-05T10:00:00Z</time>
      </trkpt>
      <trkpt lat="43.06212" lon="-0.56001">
        <ele>1490.1809082031</ele>
        <time>2016-05-05T10:00:12Z</time>
      </trkpt>
      <trkpt lat="43.0622" lon="-0.55992">
        <ele>1488.7390136719</ele>
        <time>2016-05-05T10:00:27Z</time>
      </trkpt>
      <trkpt lat="43.0622" lon="-0.55991">
        <ele>1487.296875</ele>
        <time>2016-05-05T10:00:46Z</time>
      </trkpt>
      <trkpt lat="43.06223" lon="-0.55989">
        <ele>1485.8549804688</ele>
        <time>2016-05-05T10:01:04Z</time>
      </trkpt>
      <trkpt lat="43.06228" lon="-0.55984">
        <ele>1483.4514160156</ele>
        <time>2016-05-05T10:01:19Z</time>
      </trkpt>
      <trkpt lat="43.06232" lon="-0.55978">
        <ele>1481.5288085938</ele>
        <time>2016-05-05T10:01:34Z</time>
      </trkpt>
      <trkpt lat="43.06237" lon="-0.55973">
        <ele>1479.1254882812</ele>
        <time>2016-05-05T10:01:46Z</time>
      </trkpt>
      <trkpt lat="43.06242" lon="-0.55966">
        <ele>1477.203125</ele>
        <time>2016-05-05T10:02:01Z</time>
      </trkpt>
      <trkpt lat="43.06248" lon="-0.55961">
        <ele>1475.2802734375</ele>
        <time>2016-05-05T10:02:14Z</time>
      </trkpt>
      <trkpt lat="43.06253" lon="-0.55954">
        <ele>1472.396484375</ele>
        <time>2016-05-05T10:02:28Z</time>
      </trkpt>
      <trkpt lat="43.06256" lon="-0.55951">
        <ele>1471.9157714844</ele>
        <time>2016-05-05T10:02:41Z</time>
      </trkpt>
      <trkpt lat="43.06263" lon="-0.55949">
        <ele>1469.0319824219</ele>
        <time>2016-05-05T10:02:55Z</time>
      </trkpt>
      <trkpt lat="43.06268" lon="-0.55944">
        <ele>1466.6284179688</ele>
        <time>2016-05-05T10:03:08Z</time>
      </trkpt>
      <trkpt lat="43.06271" lon="-0.5594">
        <ele>1464.7058105469</ele>
        <time>2016-05-05T10:03:16Z</time>
      </trkpt>
      <trkpt lat="43.06271" lon="-0.55934">
        <ele>1463.2639160156</ele>
        <time>2016-05-05T10:03:31Z</time>
      </trkpt>
      <trkpt lat="43.0627" lon="-0.55925">
        <ele>1460.3798828125</ele>
        <time>2016-05-05T10:03:46Z</time>
      </trkpt>
      <trkpt lat="43.0627" lon="-0.55918">
        <ele>1457.49609375</ele>
        <time>2016-05-05T10:04:00Z</time>
      </trkpt>
      <trkpt lat="43.06266" lon="-0.55911">
        <ele>1454.6120605469</ele>
        <time>2016-05-05T10:04:15Z</time>
      </trkpt>
      <trkpt lat="43.06264" lon="-0.55905">
        <ele>1451.7280273438</ele>
        <time>2016-05-05T10:04:27Z</time>
      </trkpt>
      <trkpt lat="43.06261" lon="-0.5589">
        <ele>1447.8828125</ele>
        <time>2016-05-05T10:04:44Z</time>
      </trkpt>
      <trkpt lat="43.06261" lon="-0.55876">
        <ele>1444.5180664062</ele>
        <time>2016-05-05T10:04:56Z</time>
      </trkpt>
      <trkpt lat="43.06262" lon="-0.55865">
        <ele>1442.595703125</ele>
        <time>2016-05-05T10:05:06Z</time>
      </trkpt>
      <trkpt lat="43.06263" lon="-0.55855">
        <ele>1439.2309570312</ele>
        <time>2016-05-05T10:05:14Z</time>
      </trkpt>
      <trkpt lat="43.06264" lon="-0.55846">
        <ele>1439.7116699219</ele>
        <time>2016-05-05T10:05:31Z</time>
      </trkpt>
      <trkpt lat="43.06261" lon="-0.55836">
        <ele>1439.2309570312</ele>
        <time>2016-05-05T10:05:38Z</time>
      </trkpt>
      <trkpt lat="43.06252" lon="-0.55817">
        <ele>1436.3471679688</ele>
        <time>2016-05-05T10:05:55Z</time>
      </trkpt>
      <trkpt lat="43.06253" lon="-0.558">
        <ele>1433.9436035156</ele>
        <time>2016-05-05T10:06:06Z</time>
      </trkpt>
      <trkpt lat="43.06257" lon="-0.55774">
        <ele>1430.0983886719</ele>
        <time>2016-05-05T10:06:24Z</time>
      </trkpt>
      <trkpt lat="43.06257" lon="-0.55772">
        <ele>1430.0983886719</ele>
        <time>2016-05-05T10:06:25Z</time>
      </trkpt>
      <trkpt lat="43.06255" lon="-0.55752">
        <ele>1427.2145996094</ele>
        <time>2016-05-05T10:06:39Z</time>
      </trkpt>
      <trkpt lat="43.06254" lon="-0.55733">
        <ele>1423.8498535156</ele>
        <time>2016-05-05T10:06:55Z</time>
      </trkpt>
      <trkpt lat="43.06252" lon="-0.55719">
        <ele>1420.9660644531</ele>
        <time>2016-05-05T10:07:08Z</time>
      </trkpt>
      <trkpt lat="43.06259" lon="-0.55712">
        <ele>1417.6010742188</ele>
        <time>2016-05-05T10:07:21Z</time>
      </trkpt>
      <trkpt lat="43.0626" lon="-0.55712">
        <ele>1418.0817871094</ele>
        <time>2016-05-05T10:07:23Z</time>
      </trkpt>
      <trkpt lat="43.06267" lon="-0.55705">
        <ele>1414.7172851562</ele>
        <time>2016-05-05T10:07:38Z</time>
      </trkpt>
      <trkpt lat="43.06273" lon="-0.55703">
        <ele>1413.275390625</ele>
        <time>2016-05-05T10:07:51Z</time>
      </trkpt>
      <trkpt lat="43.06282" lon="-0.55705">
        <ele>1412.3139648438</ele>
        <time>2016-05-05T10:08:04Z</time>
      </trkpt>
      <trkpt lat="43.06287" lon="-0.55703">
        <ele>1409.9106445312</ele>
        <time>2016-05-05T10:08:12Z</time>
      </trkpt>
      <trkpt lat="43.06295" lon="-0.55701">
        <ele>1408.46875</ele>
        <time>2016-05-05T10:08:24Z</time>
      </trkpt>
      <trkpt lat="43.06298" lon="-0.55701">
        <ele>1407.5075683594</ele>
        <time>2016-05-05T10:08:27Z</time>
      </trkpt>
      <trkpt lat="43.06305" lon="-0.557">
        <ele>1406.0654296875</ele>
        <time>2016-05-05T10:08:41Z</time>
      </trkpt>
      <trkpt lat="43.06311" lon="-0.55695">
        <ele>1405.1042480469</ele>
        <time>2016-05-05T10:08:53Z</time>
      </trkpt>
      <trkpt lat="43.0631" lon="-0.55683">
        <ele>1402.2199707031</ele>
        <time>2016-05-05T10:09:03Z</time>
      </trkpt>
      <trkpt lat="43.06312" lon="-0.55673">
        <ele>1399.8168945312</ele>
        <time>2016-05-05T10:09:16Z</time>
      </trkpt>
      <trkpt lat="43.06315" lon="-0.55661">
        <ele>1396.9328613281</ele>
        <time>2016-05-05T10:09:29Z</time>
      </trkpt>
      <trkpt lat="43.06316" lon="-0.5566">
        <ele>1396.9328613281</ele>
        <time>2016-05-05T10:09:30Z</time>
      </trkpt>
      <trkpt lat="43.06324" lon="-0.55639">
        <ele>1393.568359375</ele>
        <time>2016-05-05T10:09:47Z</time>
      </trkpt>
      <trkpt lat="43.06335" lon="-0.55628">
        <ele>1391.6457519531</ele>
        <time>2016-05-05T10:10:03Z</time>
      </trkpt>
      <trkpt lat="43.06336" lon="-0.55622">
        <ele>1390.2038574219</ele>
        <time>2016-05-05T10:10:08Z</time>
      </trkpt>
      <trkpt lat="43.0634" lon="-0.55617">
        <ele>1388.7619628906</ele>
        <time>2016-05-05T10:10:23Z</time>
      </trkpt>
      <trkpt lat="43.06343" lon="-0.55619">
        <ele>1387.8002929688</ele>
        <time>2016-05-05T10:10:36Z</time>
      </trkpt>
      <trkpt lat="43.06343" lon="-0.55618">
        <ele>1387.3195800781</ele>
        <time>2016-05-05T10:10:51Z</time>
      </trkpt>
      <trkpt lat="43.06341" lon="-0.55613">
        <ele>1386.8388671875</ele>
        <time>2016-05-05T10:11:12Z</time>
      </trkpt>
      <trkpt lat="43.06337" lon="-0.55612">
        <ele>1387.3195800781</ele>
        <time>2016-05-05T10:11:34Z</time>
      </trkpt>
      <trkpt lat="43.06343" lon="-0.55616">
        <ele>1385.8776855469</ele>
        <time>2016-05-05T10:12:00Z</time>
      </trkpt>
      <trkpt lat="43.06341" lon="-0.55616">
        <ele>1384.9165039062</ele>
        <time>2016-05-05T10:12:24Z</time>
      </trkpt>
      <trkpt lat="43.06338" lon="-0.55616">
        <ele>1384.4357910156</ele>
        <time>2016-05-05T10:13:15Z</time>
      </trkpt>
      <trkpt lat="43.06333" lon="-0.5561">
        <ele>1383.4743652344</ele>
        <time>2016-05-05T10:14:17Z</time>
      </trkpt>
      <trkpt lat="43.06333" lon="-0.55614">
        <ele>1383.955078125</ele>
        <time>2016-05-05T10:15:10Z</time>
      </trkpt>
      <trkpt lat="43.06326" lon="-0.55603">
        <ele>1382.9936523438</ele>
        <time>2016-05-05T10:17:00Z</time>
      </trkpt>
      <trkpt lat="43.06341" lon="-0.55604">
        <ele>1383.4743652344</ele>
        <time>2016-05-05T10:17:35Z</time>
      </trkpt>
      <trkpt lat="43.06341" lon="-0.55605">
        <ele>1383.4743652344</ele>
        <time>2016-05-05T10:17:52Z</time>
      </trkpt>
      <trkpt lat="43.0634" lon="-0.55616">
        <ele>1382.0324707031</ele>
        <time>2016-05-05T10:20:04Z</time>
      </trkpt>
      <trkpt lat="43.06346" lon="-0.55613">
        <ele>1382.9936523438</ele>
        <time>2016-05-05T10:21:48Z</time>
      </trkpt>
      <trkpt lat="43.06347" lon="-0.55611">
        <ele>1383.4743652344</ele>
        <time>2016-05-05T10:22:29Z</time>
      </trkpt>
      <trkpt lat="43.06338" lon="-0.5561">
        <ele>1383.4743652344</ele>
        <time>2016-05-05T10:23:53Z</time>
      </trkpt>
      <trkpt lat="43.06334" lon="-0.5561">
        <ele>1382.9936523438</ele>
        <time>2016-05-05T10:24:40Z</time>
      </trkpt>
      <trkpt lat="43.06342" lon="-0.55618">
        <ele>1381.5517578125</ele>
        <time>2016-05-05T10:26:14Z</time>
      </trkpt>
      <trkpt lat="43.0634" lon="-0.55617">
        <ele>1381.5517578125</ele>
        <time>2016-05-05T10:28:34Z</time>
      </trkpt>
      <trkpt lat="43.06342" lon="-0.55612">
        <ele>1382.0324707031</ele>
        <time>2016-05-05T10:29:49Z</time>
      </trkpt>
      <trkpt lat="43.06349" lon="-0.55617">
        <ele>1383.4743652344</ele>
        <time>2016-05-05T10:30:19Z</time>
      </trkpt>
      <trkpt lat="43.06345" lon="-0.55616">
        <ele>1383.4743652344</ele>
        <time>2016-05-05T10:30:39Z</time>
      </trkpt>
      <trkpt lat="43.06343" lon="-0.55614">
        <ele>1383.4743652344</ele>
        <time>2016-05-05T10:30:45Z</time>
      </trkpt>
      <trkpt lat="43.06334" lon="-0.55606">
        <ele>1382.5131835938</ele>
        <time>2016-05-05T10:30:59Z</time>
      </trkpt>
      <trkpt lat="43.06331" lon="-0.556">
        <ele>1381.5517578125</ele>
        <time>2016-05-05T10:31:05Z</time>
      </trkpt>
      <trkpt lat="43.06335" lon="-0.55587">
        <ele>1378.1872558594</ele>
        <time>2016-05-05T10:31:19Z</time>
      </trkpt>
      <trkpt lat="43.06339" lon="-0.55583">
        <ele>1377.2260742188</ele>
        <time>2016-05-05T10:31:25Z</time>
      </trkpt>
      <trkpt lat="43.06346" lon="-0.55579">
        <ele>1373.380859375</ele>
        <time>2016-05-05T10:31:36Z</time>
      </trkpt>
      <trkpt lat="43.06348" lon="-0.55575">
        <ele>1371.4577636719</ele>
        <time>2016-05-05T10:31:48Z</time>
      </trkpt>
      <trkpt lat="43.06354" lon="-0.5557">
        <ele>1368.0932617188</ele>
        <time>2016-05-05T10:32:04Z</time>
      </trkpt>
      <trkpt lat="43.06358" lon="-0.55564">
        <ele>1364.7287597656</ele>
        <time>2016-05-05T10:32:13Z</time>
      </trkpt>
      <trkpt lat="43.06363" lon="-0.55557">
        <ele>1361.8449707031</ele>
        <time>2016-05-05T10:32:25Z</time>
      </trkpt>
      <trkpt lat="43.06365" lon="-0.55543">
        <ele>1358.4802246094</ele>
        <time>2016-05-05T10:32:38Z</time>
      </trkpt>
      <trkpt lat="43.06369" lon="-0.55528">
        <ele>1355.5961914062</ele>
        <time>2016-05-05T10:32:54Z</time>
      </trkpt>
      <trkpt lat="43.06369" lon="-0.55515">
        <ele>1354.154296875</ele>
        <time>2016-05-05T10:33:06Z</time>
      </trkpt>
      <trkpt lat="43.06372" lon="-0.55504">
        <ele>1350.7895507812</ele>
        <time>2016-05-05T10:33:22Z</time>
      </trkpt>
      <trkpt lat="43.06376" lon="-0.55496">
        <ele>1348.8669433594</ele>
        <time>2016-05-05T10:33:35Z</time>
      </trkpt>
      <trkpt lat="43.06382" lon="-0.55485">
        <ele>1347.4250488281</ele>
        <time>2016-05-05T10:33:49Z</time>
      </trkpt>
      <trkpt lat="43.06389" lon="-0.55468">
        <ele>1344.060546875</ele>
        <time>2016-05-05T10:34:06Z</time>
      </trkpt>
      <trkpt lat="43.06394" lon="-0.5546">
        <ele>1343.5798339844</ele>
        <time>2016-05-05T10:34:14Z</time>
      </trkpt>
      <trkpt lat="43.06401" lon="-0.55455">
        <ele>1343.0991210938</ele>
        <time>2016-05-05T10:34:21Z</time>
      </trkpt>
      <trkpt lat="43.06405" lon="-0.55456">
        <ele>1343.5798339844</ele>
        <time>2016-05-05T10:34:26Z</time>
      </trkpt>
      <trkpt lat="43.06409" lon="-0.55455">
        <ele>1343.0991210938</ele>
        <time>2016-05-05T10:34:30Z</time>
      </trkpt>
      <trkpt lat="43.06433" lon="-0.55441">
        <ele>1341.1765136719</ele>
        <time>2016-05-05T10:34:51Z</time>
      </trkpt>
      <trkpt lat="43.06452" lon="-0.55438">
        <ele>1342.1379394531</ele>
        <time>2016-05-05T10:35:10Z</time>
      </trkpt>
      <trkpt lat="43.06458" lon="-0.55439">
        <ele>1338.7731933594</ele>
        <time>2016-05-05T10:35:20Z</time>
      </trkpt>
      <trkpt lat="43.06466" lon="-0.55435">
        <ele>1335.8891601562</ele>
        <time>2016-05-05T10:35:34Z</time>
      </trkpt>
      <trkpt lat="43.06471" lon="-0.55428">
        <ele>1332.5246582031</ele>
        <time>2016-05-05T10:35:46Z</time>
      </trkpt>
      <trkpt lat="43.06475" lon="-0.5542">
        <ele>1328.6794433594</ele>
        <time>2016-05-05T10:35:58Z</time>
      </trkpt>
      <trkpt lat="43.06476" lon="-0.5542">
        <ele>1328.6794433594</ele>
        <time>2016-05-05T10:35:59Z</time>
      </trkpt>
      <trkpt lat="43.06481" lon="-0.55417">
        <ele>1326.2761230469</ele>
        <time>2016-05-05T10:36:13Z</time>
      </trkpt>
      <trkpt lat="43.06492" lon="-0.55413">
        <ele>1322.9113769531</ele>
        <time>2016-05-05T10:36:31Z</time>
      </trkpt>
      <trkpt lat="43.06492" lon="-0.55413">
        <ele>1322.9113769531</ele>
        <time>2016-05-05T10:36:32Z</time>
      </trkpt>
      <trkpt lat="43.06494" lon="-0.55415">
        <ele>1319.546875</ele>
        <time>2016-05-05T10:36:39Z</time>
      </trkpt>
      <trkpt lat="43.06502" lon="-0.55413">
        <ele>1318.1047363281</ele>
        <time>2016-05-05T10:36:50Z</time>
      </trkpt>
      <trkpt lat="43.06511" lon="-0.55412">
        <ele>1316.1821289062</ele>
        <time>2016-05-05T10:36:59Z</time>
      </trkpt>
      <trkpt lat="43.06513" lon="-0.55405">
        <ele>1315.2209472656</ele>
        <time>2016-05-05T10:37:04Z</time>
      </trkpt>
      <trkpt lat="43.06517" lon="-0.55395">
        <ele>1314.740234375</ele>
        <time>2016-05-05T10:37:10Z</time>
      </trkpt>
      <trkpt lat="43.06521" lon="-0.55391">
        <ele>1314.2595214844</ele>
        <time>2016-05-05T10:37:13Z</time>
      </trkpt>
      <trkpt lat="43.06534" lon="-0.55373">
        <ele>1314.2595214844</ele>
        <time>2016-05-05T10:37:29Z</time>
      </trkpt>
      <trkpt lat="43.06541" lon="-0.55356">
        <ele>1313.7788085938</ele>
        <time>2016-05-05T10:37:44Z</time>
      </trkpt>
      <trkpt lat="43.06545" lon="-0.55343">
        <ele>1311.8564453125</ele>
        <time>2016-05-05T10:37:54Z</time>
      </trkpt>
      <trkpt lat="43.06549" lon="-0.55328">
        <ele>1309.93359375</ele>
        <time>2016-05-05T10:38:10Z</time>
      </trkpt>
      <trkpt lat="43.06549" lon="-0.55319">
        <ele>1306.5688476562</ele>
        <time>2016-05-05T10:38:23Z</time>
      </trkpt>
      <trkpt lat="43.06553" lon="-0.55308">
        <ele>1303.6850585938</ele>
        <time>2016-05-05T10:38:40Z</time>
      </trkpt>
      <trkpt lat="43.06554" lon="-0.55301">
        <ele>1300.3205566406</ele>
        <time>2016-05-05T10:38:51Z</time>
      </trkpt>
      <trkpt lat="43.06556" lon="-0.55293">
        <ele>1297.4365234375</ele>
        <time>2016-05-05T10:39:09Z</time>
      </trkpt>
      <trkpt lat="43.06556" lon="-0.55292">
        <ele>1297.4365234375</ele>
        <time>2016-05-05T10:39:10Z</time>
      </trkpt>
      <trkpt lat="43.0656" lon="-0.55277">
        <ele>1294.0720214844</ele>
        <time>2016-05-05T10:39:23Z</time>
      </trkpt>
      <trkpt lat="43.06561" lon="-0.55268">
        <ele>1291.6684570312</ele>
        <time>2016-05-05T10:39:43Z</time>
      </trkpt>
      <trkpt lat="43.06564" lon="-0.55263">
        <ele>1288.3039550781</ele>
        <time>2016-05-05T10:39:55Z</time>
      </trkpt>
      <trkpt lat="43.06563" lon="-0.55249">
        <ele>1284.939453125</ele>
        <time>2016-05-05T10:40:09Z</time>
      </trkpt>
      <trkpt lat="43.06564" lon="-0.55233">
        <ele>1283.4973144531</ele>
        <time>2016-05-05T10:40:22Z</time>
      </trkpt>
      <trkpt lat="43.06561" lon="-0.55225">
        <ele>1280.1328125</ele>
        <time>2016-05-05T10:40:34Z</time>
      </trkpt>
      <trkpt lat="43.06559" lon="-0.55213">
        <ele>1279.6520996094</ele>
        <time>2016-05-05T10:40:48Z</time>
      </trkpt>
      <trkpt lat="43.06557" lon="-0.55205">
        <ele>1276.7683105469</ele>
        <time>2016-05-05T10:40:59Z</time>
      </trkpt>
      <trkpt lat="43.06546" lon="-0.552">
        <ele>1273.4035644531</ele>
        <time>2016-05-05T10:41:12Z</time>
      </trkpt>
      <trkpt lat="43.06542" lon="-0.55194">
        <ele>1271.4807128906</ele>
        <time>2016-05-05T10:41:27Z</time>
      </trkpt>
      <trkpt lat="43.06537" lon="-0.55183">
        <ele>1268.1162109375</ele>
        <time>2016-05-05T10:41:44Z</time>
      </trkpt>
      <trkpt lat="43.06533" lon="-0.55175">
        <ele>1267.1550292969</ele>
        <time>2016-05-05T10:41:57Z</time>
      </trkpt>
      <trkpt lat="43.06533" lon="-0.55172">
        <ele>1265.7131347656</ele>
        <time>2016-05-05T10:42:00Z</time>
      </trkpt>
      <trkpt lat="43.06537" lon="-0.5516">
        <ele>1262.8291015625</ele>
        <time>2016-05-05T10:42:15Z</time>
      </trkpt>
      <trkpt lat="43.06543" lon="-0.55147">
        <ele>1260.9064941406</ele>
        <time>2016-05-05T10:42:28Z</time>
      </trkpt>
      <trkpt lat="43.06555" lon="-0.55139">
        <ele>1260.9064941406</ele>
        <time>2016-05-05T10:42:41Z</time>
      </trkpt>
      <trkpt lat="43.06567" lon="-0.55118">
        <ele>1257.5417480469</ele>
        <time>2016-05-05T10:42:58Z</time>
      </trkpt>
      <trkpt lat="43.06558" lon="-0.55115">
        <ele>1256.5803222656</ele>
        <time>2016-05-05T10:43:09Z</time>
      </trkpt>
      <trkpt lat="43.06554" lon="-0.55112">
        <ele>1254.1772460938</ele>
        <time>2016-05-05T10:43:18Z</time>
      </trkpt>
      <trkpt lat="43.06553" lon="-0.55114">
        <ele>1251.2932128906</ele>
        <time>2016-05-05T10:43:34Z</time>
      </trkpt>
      <trkpt lat="43.06552" lon="-0.55112">
        <ele>1247.9287109375</ele>
        <time>2016-05-05T10:43:45Z</time>
      </trkpt>
      <trkpt lat="43.06555" lon="-0.55109">
        <ele>1246.0061035156</ele>
        <time>2016-05-05T10:43:54Z</time>
      </trkpt>
      <trkpt lat="43.06558" lon="-0.55098">
        <ele>1243.1218261719</ele>
        <time>2016-05-05T10:44:09Z</time>
      </trkpt>
      <trkpt lat="43.06559" lon="-0.55092">
        <ele>1240.7185058594</ele>
        <time>2016-05-05T10:44:15Z</time>
      </trkpt>
      <trkpt lat="43.0656" lon="-0.55077">
        <ele>1238.7961425781</ele>
        <time>2016-05-05T10:44:29Z</time>
      </trkpt>
      <trkpt lat="43.06562" lon="-0.55062">
        <ele>1235.4313964844</ele>
        <time>2016-05-05T10:44:43Z</time>
      </trkpt>
      <trkpt lat="43.06564" lon="-0.55052">
        <ele>1233.9895019531</ele>
        <time>2016-05-05T10:44:59Z</time>
      </trkpt>
      <trkpt lat="43.06568" lon="-0.55046">
        <ele>1231.5861816406</ele>
        <time>2016-05-05T10:45:11Z</time>
      </trkpt>
      <trkpt lat="43.0657" lon="-0.55038">
        <ele>1228.7023925781</ele>
        <time>2016-05-05T10:45:23Z</time>
      </trkpt>
      <trkpt lat="43.06575" lon="-0.55028">
        <ele>1225.3374023438</ele>
        <time>2016-05-05T10:45:40Z</time>
      </trkpt>
      <trkpt lat="43.06579" lon="-0.55019">
        <ele>1222.4536132812</ele>
        <time>2016-05-05T10:45:53Z</time>
      </trkpt>
      <trkpt lat="43.06582" lon="-0.55009">
        <ele>1219.0891113281</ele>
        <time>2016-05-05T10:46:07Z</time>
      </trkpt>
      <trkpt lat="43.06588" lon="-0.55003">
        <ele>1216.205078125</ele>
        <time>2016-05-05T10:46:24Z</time>
      </trkpt>
      <trkpt lat="43.06592" lon="-0.54999">
        <ele>1213.3212890625</ele>
        <time>2016-05-05T10:46:33Z</time>
      </trkpt>
      <trkpt lat="43.06598" lon="-0.5499">
        <ele>1210.9177246094</ele>
        <time>2016-05-05T10:46:54Z</time>
      </trkpt>
      <trkpt lat="43.06602" lon="-0.54982">
        <ele>1207.5532226562</ele>
        <time>2016-05-05T10:47:06Z</time>
      </trkpt>
      <trkpt lat="43.06607" lon="-0.54972">
        <ele>1204.1887207031</ele>
        <time>2016-05-05T10:47:25Z</time>
      </trkpt>
      <trkpt lat="43.06609" lon="-0.54968">
        <ele>1203.2272949219</ele>
        <time>2016-05-05T10:47:31Z</time>
      </trkpt>
      <trkpt lat="43.06611" lon="-0.54963">
        <ele>1200.3435058594</ele>
        <time>2016-05-05T10:47:46Z</time>
      </trkpt>
      <trkpt lat="43.06614" lon="-0.54963">
        <ele>1196.9787597656</ele>
        <time>2016-05-05T10:48:03Z</time>
      </trkpt>
      <trkpt lat="43.06617" lon="-0.54959">
        <ele>1194.0947265625</ele>
        <time>2016-05-05T10:48:16Z</time>
      </trkpt>
      <trkpt lat="43.0662" lon="-0.54957">
        <ele>1190.7299804688</ele>
        <time>2016-05-05T10:48:33Z</time>
      </trkpt>
      <trkpt lat="43.06624" lon="-0.54952">
        <ele>1187.8461914062</ele>
        <time>2016-05-05T10:48:43Z</time>
      </trkpt>
      <trkpt lat="43.06629" lon="-0.54949">
        <ele>1184.9624023438</ele>
        <time>2016-05-05T10:48:51Z</time>
      </trkpt>
      <trkpt lat="43.06641" lon="-0.54942">
        <ele>1181.1171875</ele>
        <time>2016-05-05T10:49:15Z</time>
      </trkpt>
      <trkpt lat="43.06649" lon="-0.54941">
        <ele>1178.2329101562</ele>
        <time>2016-05-05T10:49:33Z</time>
      </trkpt>
      <trkpt lat="43.06657" lon="-0.54932">
        <ele>1176.791015625</ele>
        <time>2016-05-05T10:49:45Z</time>
      </trkpt>
      <trkpt lat="43.06668" lon="-0.54921">
        <ele>1173.4265136719</ele>
        <time>2016-05-05T10:49:56Z</time>
      </trkpt>
      <trkpt lat="43.06672" lon="-0.54919">
        <ele>1170.0617675781</ele>
        <time>2016-05-05T10:50:11Z</time>
      </trkpt>
      <trkpt lat="43.06679" lon="-0.54918">
        <ele>1167.1779785156</ele>
        <time>2016-05-05T10:50:30Z</time>
      </trkpt>
      <trkpt lat="43.06688" lon="-0.54915">
        <ele>1164.2939453125</ele>
        <time>2016-05-05T10:50:43Z</time>
      </trkpt>
      <trkpt lat="43.0669" lon="-0.54913">
        <ele>1164.2939453125</ele>
        <time>2016-05-05T10:50:45Z</time>
      </trkpt>
      <trkpt lat="43.06702" lon="-0.54895">
        <ele>1163.3325195312</ele>
        <time>2016-05-05T10:51:04Z</time>
      </trkpt>
      <trkpt lat="43.06711" lon="-0.54889">
        <ele>1159.9677734375</ele>
        <time>2016-05-05T10:51:20Z</time>
      </trkpt>
      <trkpt lat="43.06716" lon="-0.54884">
        <ele>1158.0454101562</ele>
        <time>2016-05-05T10:51:26Z</time>
      </trkpt>
      <trkpt lat="43.06723" lon="-0.5488">
        <ele>1155.6420898438</ele>
        <time>2016-05-05T10:51:39Z</time>
      </trkpt>
      <trkpt lat="43.06733" lon="-0.54873">
        <ele>1152.7580566406</ele>
        <time>2016-05-05T10:51:54Z</time>
      </trkpt>
      <trkpt lat="43.06741" lon="-0.54862">
        <ele>1149.3935546875</ele>
        <time>2016-05-05T10:52:10Z</time>
      </trkpt>
      <trkpt lat="43.0675" lon="-0.54854">
        <ele>1148.4321289062</ele>
        <time>2016-05-05T10:52:26Z</time>
      </trkpt>
      <trkpt lat="43.06755" lon="-0.54849">
        <ele>1146.5095214844</ele>
        <time>2016-05-05T10:52:40Z</time>
      </trkpt>
      <trkpt lat="43.0676" lon="-0.54849">
        <ele>1143.1447753906</ele>
        <time>2016-05-05T10:52:55Z</time>
      </trkpt>
      <trkpt lat="43.06762" lon="-0.54847">
        <ele>1141.7028808594</ele>
        <time>2016-05-05T10:53:01Z</time>
      </trkpt>
      <trkpt lat="43.06766" lon="-0.54844">
        <ele>1139.7802734375</ele>
        <time>2016-05-05T10:53:19Z</time>
      </trkpt>
      <trkpt lat="43.0677" lon="-0.54838">
        <ele>1136.8962402344</ele>
        <time>2016-05-05T10:53:32Z</time>
      </trkpt>
      <trkpt lat="43.06773" lon="-0.54841">
        <ele>1134.0124511719</ele>
        <time>2016-05-05T10:53:52Z</time>
      </trkpt>
      <trkpt lat="43.06776" lon="-0.54848">
        <ele>1130.6477050781</ele>
        <time>2016-05-05T10:54:05Z</time>
      </trkpt>
      <trkpt lat="43.06777" lon="-0.54859">
        <ele>1127.763671875</ele>
        <time>2016-05-05T10:54:24Z</time>
      </trkpt>
      <trkpt lat="43.06775" lon="-0.54871">
        <ele>1125.8410644531</ele>
        <time>2016-05-05T10:54:36Z</time>
      </trkpt>
      <trkpt lat="43.06774" lon="-0.54878">
        <ele>1122.9572753906</ele>
        <time>2016-05-05T10:54:53Z</time>
      </trkpt>
      <trkpt lat="43.06775" lon="-0.54883">
        <ele>1120.0732421875</ele>
        <time>2016-05-05T10:55:12Z</time>
      </trkpt>
      <trkpt lat="43.06776" lon="-0.54884">
        <ele>1119.1120605469</ele>
        <time>2016-05-05T10:55:14Z</time>
      </trkpt>
      <trkpt lat="43.06785" lon="-0.54888">
        <ele>1116.7087402344</ele>
        <time>2016-05-05T10:55:29Z</time>
      </trkpt>
      <trkpt lat="43.0679" lon="-0.54903">
        <ele>1116.2280273438</ele>
        <time>2016-05-05T10:55:42Z</time>
      </trkpt>
      <trkpt lat="43.06792" lon="-0.54906">
        <ele>1114.7858886719</ele>
        <time>2016-05-05T10:55:46Z</time>
      </trkpt>
      <trkpt lat="43.068" lon="-0.54912">
        <ele>1111.4213867188</ele>
        <time>2016-05-05T10:56:01Z</time>
      </trkpt>
      <trkpt lat="43.06806" lon="-0.54913">
        <ele>1110.4599609375</ele>
        <time>2016-05-05T10:56:17Z</time>
      </trkpt>
      <trkpt lat="43.06802" lon="-0.54918">
        <ele>1108.5373535156</ele>
        <time>2016-05-05T10:56:39Z</time>
      </trkpt>
      <trkpt lat="43.06806" lon="-0.54923">
        <ele>1105.6535644531</ele>
        <time>2016-05-05T10:56:51Z</time>
      </trkpt>
      <trkpt lat="43.06805" lon="-0.54929">
        <ele>1102.76953125</ele>
        <time>2016-05-05T10:57:05Z</time>
      </trkpt>
      <trkpt lat="43.06807" lon="-0.5493">
        <ele>1101.8083496094</ele>
        <time>2016-05-05T10:57:07Z</time>
      </trkpt>
      <trkpt lat="43.06821" lon="-0.5493">
        <ele>1099.4047851562</ele>
        <time>2016-05-05T10:57:21Z</time>
      </trkpt>
      <trkpt lat="43.0683" lon="-0.54921">
        <ele>1096.0402832031</ele>
        <time>2016-05-05T10:57:35Z</time>
      </trkpt>
      <trkpt lat="43.06831" lon="-0.5492">
        <ele>1096.0402832031</ele>
        <time>2016-05-05T10:57:36Z</time>
      </trkpt>
      <trkpt lat="43.06837" lon="-0.54913">
        <ele>1092.67578125</ele>
        <time>2016-05-05T10:57:45Z</time>
      </trkpt>
      <trkpt lat="43.06844" lon="-0.54903">
        <ele>1089.3110351562</ele>
        <time>2016-05-05T10:57:57Z</time>
      </trkpt>
      <trkpt lat="43.06849" lon="-0.54894">
        <ele>1086.9077148438</ele>
        <time>2016-05-05T10:58:10Z</time>
      </trkpt>
      <trkpt lat="43.06853" lon="-0.54889">
        <ele>1084.9853515625</ele>
        <time>2016-05-05T10:58:16Z</time>
      </trkpt>
      <trkpt lat="43.06855" lon="-0.54884">
        <ele>1084.0239257812</ele>
        <time>2016-05-05T10:58:19Z</time>
      </trkpt>
      <trkpt lat="43.06861" lon="-0.54876">
        <ele>1080.6591796875</ele>
        <time>2016-05-05T10:58:29Z</time>
      </trkpt>
      <trkpt lat="43.06864" lon="-0.54866">
        <ele>1077.7751464844</ele>
        <time>2016-05-05T10:58:40Z</time>
      </trkpt>
      <trkpt lat="43.06866" lon="-0.54859">
        <ele>1074.8913574219</ele>
        <time>2016-05-05T10:58:50Z</time>
      </trkpt>
      <trkpt lat="43.06868" lon="-0.54856">
        <ele>1072.96875</ele>
        <time>2016-05-05T10:59:05Z</time>
      </trkpt>
      <trkpt lat="43.06872" lon="-0.54855">
        <ele>1069.6042480469</ele>
        <time>2016-05-05T10:59:22Z</time>
      </trkpt>
      <trkpt lat="43.06873" lon="-0.54854">
        <ele>1069.1235351562</ele>
        <time>2016-05-05T10:59:24Z</time>
      </trkpt>
      <trkpt lat="43.06875" lon="-0.54848">
        <ele>1065.7587890625</ele>
        <time>2016-05-05T10:59:31Z</time>
      </trkpt>
      <trkpt lat="43.06878" lon="-0.54844">
        <ele>1062.3940429688</ele>
        <time>2016-05-05T10:59:43Z</time>
      </trkpt>
      <trkpt lat="43.06885" lon="-0.54836">
        <ele>1061.9135742188</ele>
        <time>2016-05-05T11:00:34Z</time>
      </trkpt>
      <trkpt lat="43.06878" lon="-0.5484">
        <ele>1062.3940429688</ele>
        <time>2016-05-05T11:01:20Z</time>
      </trkpt>
      <trkpt lat="43.06878" lon="-0.54848">
        <ele>1060.9521484375</ele>
        <time>2016-05-05T11:03:52Z</time>
      </trkpt>
      <trkpt lat="43.0688" lon="-0.54836">
        <ele>1059.5102539062</ele>
        <time>2016-05-05T11:04:20Z</time>
      </trkpt>
      <trkpt lat="43.06882" lon="-0.54829">
        <ele>1058.068359375</ele>
        <time>2016-05-05T11:04:33Z</time>
      </trkpt>
      <trkpt lat="43.06881" lon="-0.54818">
        <ele>1054.7036132812</ele>
        <time>2016-05-05T11:04:42Z</time>
      </trkpt>
      <trkpt lat="43.06882" lon="-0.54815">
        <ele>1053.26171875</ele>
        <time>2016-05-05T11:04:48Z</time>
      </trkpt>
      <trkpt lat="43.06886" lon="-0.54822">
        <ele>1052.3002929688</ele>
        <time>2016-05-05T11:05:01Z</time>
      </trkpt>
      <trkpt lat="43.06889" lon="-0.54828">
        <ele>1048.935546875</ele>
        <time>2016-05-05T11:05:12Z</time>
      </trkpt>
      <trkpt lat="43.06894" lon="-0.54831">
        <ele>1047.4936523438</ele>
        <time>2016-05-05T11:05:17Z</time>
      </trkpt>
      <trkpt lat="43.06901" lon="-0.54837">
        <ele>1044.6096191406</ele>
        <time>2016-05-05T11:05:30Z</time>
      </trkpt>
      <trkpt lat="43.06902" lon="-0.54834">
        <ele>1042.2065429688</ele>
        <time>2016-05-05T11:05:36Z</time>
      </trkpt>
      <trkpt lat="43.06904" lon="-0.54821">
        <ele>1038.8420410156</ele>
        <time>2016-05-05T11:05:48Z</time>
      </trkpt>
      <trkpt lat="43.06904" lon="-0.54807">
        <ele>1035.4770507812</ele>
        <time>2016-05-05T11:06:02Z</time>
      </trkpt>
      <trkpt lat="43.06908" lon="-0.54811">
        <ele>1033.0737304688</ele>
        <time>2016-05-05T11:06:14Z</time>
      </trkpt>
      <trkpt lat="43.06916" lon="-0.54819">
        <ele>1030.1899414062</ele>
        <time>2016-05-05T11:06:27Z</time>
      </trkpt>
      <trkpt lat="43.06921" lon="-0.54814">
        <ele>1027.3061523438</ele>
        <time>2016-05-05T11:06:38Z</time>
      </trkpt>
      <trkpt lat="43.06921" lon="-0.54801">
        <ele>1025.3833007812</ele>
        <time>2016-05-05T11:06:52Z</time>
      </trkpt>
      <trkpt lat="43.06925" lon="-0.54801">
        <ele>1022.0187988281</ele>
        <time>2016-05-05T11:07:06Z</time>
      </trkpt>
      <trkpt lat="43.06928" lon="-0.5479">
        <ele>1020.0961914062</ele>
        <time>2016-05-05T11:07:19Z</time>
      </trkpt>
      <trkpt lat="43.06929" lon="-0.54786">
        <ele>1016.7314453125</ele>
        <time>2016-05-05T11:07:30Z</time>
      </trkpt>
      <trkpt lat="43.06931" lon="-0.54789">
        <ele>1013.3669433594</ele>
        <time>2016-05-05T11:07:44Z</time>
      </trkpt>
      <trkpt lat="43.06935" lon="-0.54784">
        <ele>1010.9636230469</ele>
        <time>2016-05-05T11:08:01Z</time>
      </trkpt>
      <trkpt lat="43.06937" lon="-0.54789">
        <ele>1010.4829101562</ele>
        <time>2016-05-05T11:08:12Z</time>
      </trkpt>
      <trkpt lat="43.06939" lon="-0.54786">
        <ele>1007.5991210938</ele>
        <time>2016-05-05T11:08:19Z</time>
      </trkpt>
      <trkpt lat="43.06939" lon="-0.54782">
        <ele>1004.7150878906</ele>
        <time>2016-05-05T11:08:26Z</time>
      </trkpt>
      <trkpt lat="43.0694" lon="-0.5477">
        <ele>1002.7922363281</ele>
        <time>2016-05-05T11:08:41Z</time>
      </trkpt>
      <trkpt lat="43.06939" lon="-0.54767">
        <ele>1001.3503417969</ele>
        <time>2016-05-05T11:08:45Z</time>
      </trkpt>
      <trkpt lat="43.06946" lon="-0.54769">
        <ele>997.98583984375</ele>
        <time>2016-05-05T11:09:01Z</time>
      </trkpt>
      <trkpt lat="43.06953" lon="-0.54771">
        <ele>994.62109375</ele>
        <time>2016-05-05T11:09:15Z</time>
      </trkpt>
      <trkpt lat="43.06959" lon="-0.54779">
        <ele>991.7373046875</ele>
        <time>2016-05-05T11:09:28Z</time>
      </trkpt>
      <trkpt lat="43.06964" lon="-0.54788">
        <ele>989.81469726562</ele>
        <time>2016-05-05T11:09:42Z</time>
      </trkpt>
      <trkpt lat="43.06967" lon="-0.54792">
        <ele>986.44995117188</ele>
        <time>2016-05-05T11:09:51Z</time>
      </trkpt>
      <trkpt lat="43.06971" lon="-0.54787">
        <ele>983.08520507812</ele>
        <time>2016-05-05T11:10:07Z</time>
      </trkpt>
      <trkpt lat="43.06974" lon="-0.54776">
        <ele>979.23999023438</ele>
        <time>2016-05-05T11:10:23Z</time>
      </trkpt>
      <trkpt lat="43.0698" lon="-0.54777">
        <ele>976.35620117188</ele>
        <time>2016-05-05T11:10:36Z</time>
      </trkpt>
      <trkpt lat="43.0698" lon="-0.5477">
        <ele>974.91430664062</ele>
        <time>2016-05-05T11:10:42Z</time>
      </trkpt>
      <trkpt lat="43.06979" lon="-0.54758">
        <ele>971.54931640625</ele>
        <time>2016-05-05T11:10:53Z</time>
      </trkpt>
      <trkpt lat="43.06979" lon="-0.54746">
        <ele>969.626953125</ele>
        <time>2016-05-05T11:11:05Z</time>
      </trkpt>
      <trkpt lat="43.06983" lon="-0.54742">
        <ele>968.66552734375</ele>
        <time>2016-05-05T11:11:20Z</time>
      </trkpt>
      <trkpt lat="43.06982" lon="-0.54734">
        <ele>966.74291992188</ele>
        <time>2016-05-05T11:11:33Z</time>
      </trkpt>
      <trkpt lat="43.06982" lon="-0.54726">
        <ele>963.37841796875</ele>
        <time>2016-05-05T11:11:44Z</time>
      </trkpt>
      <trkpt lat="43.06984" lon="-0.54734">
        <ele>961.9365234375</ele>
        <time>2016-05-05T11:11:59Z</time>
      </trkpt>
      <trkpt lat="43.0699" lon="-0.54745">
        <ele>959.05249023438</ele>
        <time>2016-05-05T11:12:12Z</time>
      </trkpt>
      <trkpt lat="43.06993" lon="-0.54748">
        <ele>958.09130859375</ele>
        <time>2016-05-05T11:12:18Z</time>
      </trkpt>
      <trkpt lat="43.06997" lon="-0.54748">
        <ele>955.20703125</ele>
        <time>2016-05-05T11:12:30Z</time>
      </trkpt>
      <trkpt lat="43.07002" lon="-0.54747">
        <ele>951.84252929688</ele>
        <time>2016-05-05T11:12:41Z</time>
      </trkpt>
      <trkpt lat="43.07003" lon="-0.54746">
        <ele>951.84252929688</ele>
        <time>2016-05-05T11:12:42Z</time>
      </trkpt>
      <trkpt lat="43.07004" lon="-0.5473">
        <ele>948.47778320312</ele>
        <time>2016-05-05T11:12:56Z</time>
      </trkpt>
      <trkpt lat="43.07003" lon="-0.54712">
        <ele>945.59399414062</ele>
        <time>2016-05-05T11:13:11Z</time>
      </trkpt>
      <trkpt lat="43.07004" lon="-0.54703">
        <ele>942.2294921875</ele>
        <time>2016-05-05T11:13:21Z</time>
      </trkpt>
      <trkpt lat="43.07004" lon="-0.547">
        <ele>942.2294921875</ele>
        <time>2016-05-05T11:13:23Z</time>
      </trkpt>
      <trkpt lat="43.07002" lon="-0.54685">
        <ele>939.82592773438</ele>
        <time>2016-05-05T11:13:36Z</time>
      </trkpt>
      <trkpt lat="43.07" lon="-0.54674">
        <ele>936.94189453125</ele>
        <time>2016-05-05T11:13:47Z</time>
      </trkpt>
      <trkpt lat="43.06999" lon="-0.54669">
        <ele>936.46142578125</ele>
        <time>2016-05-05T11:13:54Z</time>
      </trkpt>
      <trkpt lat="43.07001" lon="-0.54663">
        <ele>935.01953125</ele>
        <time>2016-05-05T11:13:58Z</time>
      </trkpt>
      <trkpt lat="43.07003" lon="-0.54648">
        <ele>935.01953125</ele>
        <time>2016-05-05T11:14:14Z</time>
      </trkpt>
      <trkpt lat="43.0701" lon="-0.54635">
        <ele>933.0966796875</ele>
        <time>2016-05-05T11:14:25Z</time>
      </trkpt>
      <trkpt lat="43.07011" lon="-0.54634">
        <ele>932.6162109375</ele>
        <time>2016-05-05T11:14:26Z</time>
      </trkpt>
      <trkpt lat="43.07014" lon="-0.54628">
        <ele>928.77099609375</ele>
        <time>2016-05-05T11:14:38Z</time>
      </trkpt>
      <trkpt lat="43.07014" lon="-0.54642">
        <ele>925.40625</ele>
        <time>2016-05-05T11:14:52Z</time>
      </trkpt>
      <trkpt lat="43.07014" lon="-0.54644">
        <ele>925.40625</ele>
        <time>2016-05-05T11:14:53Z</time>
      </trkpt>
      <trkpt lat="43.07016" lon="-0.54657">
        <ele>920.599609375</ele>
        <time>2016-05-05T11:15:07Z</time>
      </trkpt>
      <trkpt lat="43.07019" lon="-0.5467">
        <ele>919.15771484375</ele>
        <time>2016-05-05T11:15:18Z</time>
      </trkpt>
      <trkpt lat="43.07022" lon="-0.54673">
        <ele>916.27368164062</ele>
        <time>2016-05-05T11:15:29Z</time>
      </trkpt>
      <trkpt lat="43.07029" lon="-0.54662">
        <ele>913.87036132812</ele>
        <time>2016-05-05T11:15:42Z</time>
      </trkpt>
      <trkpt lat="43.07034" lon="-0.54654">
        <ele>910.505859375</ele>
        <time>2016-05-05T11:15:53Z</time>
      </trkpt>
      <trkpt lat="43.07044" lon="-0.54641">
        <ele>907.62182617188</ele>
        <time>2016-05-05T11:16:06Z</time>
      </trkpt>
      <trkpt lat="43.07045" lon="-0.54637">
        <ele>906.66040039062</ele>
        <time>2016-05-05T11:16:08Z</time>
      </trkpt>
      <trkpt lat="43.0705" lon="-0.54623">
        <ele>904.25732421875</ele>
        <time>2016-05-05T11:16:19Z</time>
      </trkpt>
      <trkpt lat="43.07056" lon="-0.54612">
        <ele>901.85400390625</ele>
        <time>2016-05-05T11:16:31Z</time>
      </trkpt>
      <trkpt lat="43.07062" lon="-0.54603">
        <ele>899.45068359375</ele>
        <time>2016-05-05T11:16:41Z</time>
      </trkpt>
      <trkpt lat="43.07066" lon="-0.54599">
        <ele>897.52807617188</ele>
        <time>2016-05-05T11:16:46Z</time>
      </trkpt>
      <trkpt lat="43.07072" lon="-0.5459">
        <ele>894.16357421875</ele>
        <time>2016-05-05T11:16:59Z</time>
      </trkpt>
      <trkpt lat="43.07073" lon="-0.54598">
        <ele>890.31811523438</ele>
        <time>2016-05-05T11:17:10Z</time>
      </trkpt>
      <trkpt lat="43.07074" lon="-0.54609">
        <ele>887.43408203125</ele>
        <time>2016-05-05T11:17:18Z</time>
      </trkpt>
      <trkpt lat="43.07073" lon="-0.54611">
        <ele>887.43408203125</ele>
        <time>2016-05-05T11:17:19Z</time>
      </trkpt>
      <trkpt lat="43.07071" lon="-0.54622">
        <ele>885.9921875</ele>
        <time>2016-05-05T11:17:27Z</time>
      </trkpt>
      <trkpt lat="43.07072" lon="-0.54636">
        <ele>883.10815429688</ele>
        <time>2016-05-05T11:17:38Z</time>
      </trkpt>
      <trkpt lat="43.07074" lon="-0.54649">
        <ele>880.22436523438</ele>
        <time>2016-05-05T11:17:48Z</time>
      </trkpt>
      <trkpt lat="43.07081" lon="-0.54663">
        <ele>877.82104492188</ele>
        <time>2016-05-05T11:18:01Z</time>
      </trkpt>
      <trkpt lat="43.07086" lon="-0.54672">
        <ele>875.89819335938</ele>
        <time>2016-05-05T11:18:13Z</time>
      </trkpt>
      <trkpt lat="43.07093" lon="-0.54658">
        <ele>873.9755859375</ele>
        <time>2016-05-05T11:18:24Z</time>
      </trkpt>
      <trkpt lat="43.07098" lon="-0.54649">
        <ele>870.61108398438</ele>
        <time>2016-05-05T11:18:41Z</time>
      </trkpt>
      <trkpt lat="43.07104" lon="-0.5464">
        <ele>867.24658203125</ele>
        <time>2016-05-05T11:18:51Z</time>
      </trkpt>
      <trkpt lat="43.07108" lon="-0.54631">
        <ele>864.36254882812</ele>
        <time>2016-05-05T11:19:04Z</time>
      </trkpt>
      <trkpt lat="43.07108" lon="-0.54627">
        <ele>864.36254882812</ele>
        <time>2016-05-05T11:19:06Z</time>
      </trkpt>
      <trkpt lat="43.07107" lon="-0.54623">
        <ele>863.8818359375</ele>
        <time>2016-05-05T11:19:09Z</time>
      </trkpt>
      <trkpt lat="43.07109" lon="-0.54616">
        <ele>862.92065429688</ele>
        <time>2016-05-05T11:19:13Z</time>
      </trkpt>
      <trkpt lat="43.07112" lon="-0.54609">
        <ele>859.0751953125</ele>
        <time>2016-05-05T11:19:24Z</time>
      </trkpt>
      <trkpt lat="43.07112" lon="-0.5461">
        <ele>858.59448242188</ele>
        <time>2016-05-05T11:19:26Z</time>
      </trkpt>
      <trkpt lat="43.07114" lon="-0.54629">
        <ele>855.22998046875</ele>
        <time>2016-05-05T11:19:41Z</time>
      </trkpt>
      <trkpt lat="43.0712" lon="-0.54631">
        <ele>852.34594726562</ele>
        <time>2016-05-05T11:19:53Z</time>
      </trkpt>
      <trkpt lat="43.07125" lon="-0.54624">
        <ele>849.46215820312</ele>
        <time>2016-05-05T11:20:02Z</time>
      </trkpt>
      <trkpt lat="43.07125" lon="-0.54623">
        <ele>849.46215820312</ele>
        <time>2016-05-05T11:20:03Z</time>
      </trkpt>
      <trkpt lat="43.07129" lon="-0.54608">
        <ele>847.53955078125</ele>
        <time>2016-05-05T11:20:15Z</time>
      </trkpt>
      <trkpt lat="43.07134" lon="-0.54599">
        <ele>844.17504882812</ele>
        <time>2016-05-05T11:20:26Z</time>
      </trkpt>
      <trkpt lat="43.07134" lon="-0.54604">
        <ele>842.73291015625</ele>
        <time>2016-05-05T11:20:31Z</time>
      </trkpt>
      <trkpt lat="43.07134" lon="-0.54607">
        <ele>842.25219726562</ele>
        <time>2016-05-05T11:20:33Z</time>
      </trkpt>
      <trkpt lat="43.07134" lon="-0.54622">
        <ele>838.40698242188</ele>
        <time>2016-05-05T11:20:44Z</time>
      </trkpt>
      <trkpt lat="43.07137" lon="-0.54619">
        <ele>836.484375</ele>
        <time>2016-05-05T11:20:50Z</time>
      </trkpt>
      <trkpt lat="43.07144" lon="-0.54606">
        <ele>834.56176757812</ele>
        <time>2016-05-05T11:21:02Z</time>
      </trkpt>
      <trkpt lat="43.0715" lon="-0.54593">
        <ele>832.15844726562</ele>
        <time>2016-05-05T11:21:13Z</time>
      </trkpt>
      <trkpt lat="43.07151" lon="-0.54592">
        <ele>832.15844726562</ele>
        <time>2016-05-05T11:21:14Z</time>
      </trkpt>
      <trkpt lat="43.07159" lon="-0.54576">
        <ele>829.75512695312</ele>
        <time>2016-05-05T11:21:28Z</time>
      </trkpt>
      <trkpt lat="43.07163" lon="-0.54564">
        <ele>826.39038085938</ele>
        <time>2016-05-05T11:21:40Z</time>
      </trkpt>
      <trkpt lat="43.07166" lon="-0.54553">
        <ele>823.98706054688</ele>
        <time>2016-05-05T11:21:53Z</time>
      </trkpt>
      <trkpt lat="43.07175" lon="-0.54539">
        <ele>821.58374023438</ele>
        <time>2016-05-05T11:22:05Z</time>
      </trkpt>
      <trkpt lat="43.07177" lon="-0.54535">
        <ele>819.66137695312</ele>
        <time>2016-05-05T11:22:09Z</time>
      </trkpt>
      <trkpt lat="43.07183" lon="-0.54529">
        <ele>818.21923828125</ele>
        <time>2016-05-05T11:22:20Z</time>
      </trkpt>
      <trkpt lat="43.07189" lon="-0.54527">
        <ele>816.29663085938</ele>
        <time>2016-05-05T11:22:26Z</time>
      </trkpt>
      <trkpt lat="43.07195" lon="-0.54522">
        <ele>815.33544921875</ele>
        <time>2016-05-05T11:22:31Z</time>
      </trkpt>
      <trkpt lat="43.07206" lon="-0.54517">
        <ele>812.45141601562</ele>
        <time>2016-05-05T11:22:42Z</time>
      </trkpt>
      <trkpt lat="43.07203" lon="-0.54519">
        <ele>810.0478515625</ele>
        <time>2016-05-05T11:22:51Z</time>
      </trkpt>
      <trkpt lat="43.07201" lon="-0.54521">
        <ele>808.60595703125</ele>
        <time>2016-05-05T11:22:53Z</time>
      </trkpt>
      <trkpt lat="43.07199" lon="-0.54524">
        <ele>808.12548828125</ele>
        <time>2016-05-05T11:22:55Z</time>
      </trkpt>
      <trkpt lat="43.07197" lon="-0.54529">
        <ele>807.64477539062</ele>
        <time>2016-05-05T11:22:58Z</time>
      </trkpt>
      <trkpt lat="43.07194" lon="-0.5455">
        <ele>806.68334960938</ele>
        <time>2016-05-05T11:23:11Z</time>
      </trkpt>
      <trkpt lat="43.07197" lon="-0.54562">
        <ele>803.31884765625</ele>
        <time>2016-05-05T11:23:21Z</time>
      </trkpt>
      <trkpt lat="43.07199" lon="-0.5457">
        <ele>799.95434570312</ele>
        <time>2016-05-05T11:23:29Z</time>
      </trkpt>
      <trkpt lat="43.07199" lon="-0.54571">
        <ele>799.95434570312</ele>
        <time>2016-05-05T11:23:30Z</time>
      </trkpt>
      <trkpt lat="43.072" lon="-0.54591">
        <ele>798.03173828125</ele>
        <time>2016-05-05T11:23:45Z</time>
      </trkpt>
      <trkpt lat="43.07202" lon="-0.54605">
        <ele>796.10913085938</ele>
        <time>2016-05-05T11:23:57Z</time>
      </trkpt>
      <trkpt lat="43.07206" lon="-0.54616">
        <ele>795.1474609375</ele>
        <time>2016-05-05T11:24:08Z</time>
      </trkpt>
      <trkpt lat="43.07213" lon="-0.54635">
        <ele>792.74438476562</ele>
        <time>2016-05-05T11:24:24Z</time>
      </trkpt>
      <trkpt lat="43.07215" lon="-0.54641">
        <ele>791.78295898438</ele>
        <time>2016-05-05T11:24:28Z</time>
      </trkpt>
      <trkpt lat="43.07222" lon="-0.54646">
        <ele>788.89916992188</ele>
        <time>2016-05-05T11:24:41Z</time>
      </trkpt>
      <trkpt lat="43.07225" lon="-0.54637">
        <ele>787.45703125</ele>
        <time>2016-05-05T11:24:47Z</time>
      </trkpt>
      <trkpt lat="43.0723" lon="-0.54638">
        <ele>783.61181640625</ele>
        <time>2016-05-05T11:24:59Z</time>
      </trkpt>
      <trkpt lat="43.07231" lon="-0.54639">
        <ele>783.61181640625</ele>
        <time>2016-05-05T11:25:00Z</time>
      </trkpt>
      <trkpt lat="43.07235" lon="-0.54642">
        <ele>780.72802734375</ele>
        <time>2016-05-05T11:25:13Z</time>
      </trkpt>
      <trkpt lat="43.07243" lon="-0.54627">
        <ele>777.36328125</ele>
        <time>2016-05-05T11:25:27Z</time>
      </trkpt>
      <trkpt lat="43.07245" lon="-0.54637">
        <ele>774.47924804688</ele>
        <time>2016-05-05T11:25:40Z</time>
      </trkpt>
      <trkpt lat="43.0725" lon="-0.54632">
        <ele>771.59521484375</ele>
        <time>2016-05-05T11:25:51Z</time>
      </trkpt>
      <trkpt lat="43.07255" lon="-0.54624">
        <ele>768.23071289062</ele>
        <time>2016-05-05T11:26:02Z</time>
      </trkpt>
      <trkpt lat="43.07258" lon="-0.54615">
        <ele>766.78881835938</ele>
        <time>2016-05-05T11:26:11Z</time>
      </trkpt>
      <trkpt lat="43.07264" lon="-0.54601">
        <ele>766.30810546875</ele>
        <time>2016-05-05T11:26:23Z</time>
      </trkpt>
    </trkseg>
  </trk>
</gpx>